<?xml version="1.0" encoding="UTF-8" standalone="no" ?>
<gpx xmlns="http://www.topografix.com/GPX/1/1" xmlns:xsi="http://www.w3.org/2001/XMLSchema-instance" xsi:schemaLocation="http://www.topografix.com/GPX/1/1 http://www.topografix.com/GPX/1/1/gpx.xsd" version="1.1" creator="VisuGPX - https://www.visugpx.com">
  <metadata>
    <name>2019-06-17 13:59:49 courtrizy</name>
    <desc><![CDATA[File with points/tracks from Locus Map/3.38.4]]></desc>
  </metadata>
  <trk>
    <name><![CDATA[2019-06-17 13:59:49]]></name>
    <trkseg>
      <trkpt lat="49.51992" lon="3.7876">
        <ele>137.55</ele>
        <time>2019-06-17T11:59:49.999Z</time>
      </trkpt>
      <trkpt lat="49.51993" lon="3.78762">
        <ele>138.64</ele>
        <time>2019-06-17T12:00:02.999Z</time>
      </trkpt>
      <trkpt lat="49.51996" lon="3.78765">
        <ele>138.36</ele>
        <time>2019-06-17T12:00:12.999Z</time>
      </trkpt>
      <trkpt lat="49.51998" lon="3.78763">
        <ele>138.02</ele>
        <time>2019-06-17T12:00:22.999Z</time>
      </trkpt>
      <trkpt lat="49.51997" lon="3.78763">
        <ele>137.73</ele>
        <time>2019-06-17T12:00:35.999Z</time>
      </trkpt>
      <trkpt lat="49.51996" lon="3.78762">
        <ele>137.43</ele>
        <time>2019-06-17T12:00:45.999Z</time>
      </trkpt>
      <trkpt lat="49.51997" lon="3.78759">
        <ele>137.2</ele>
        <time>2019-06-17T12:00:55.999Z</time>
      </trkpt>
      <trkpt lat="49.51995" lon="3.7876">
        <ele>137.09</ele>
        <time>2019-06-17T12:01:05.999Z</time>
      </trkpt>
      <trkpt lat="49.51994" lon="3.78761">
        <ele>136.81</ele>
        <time>2019-06-17T12:01:15.999Z</time>
      </trkpt>
      <trkpt lat="49.51996" lon="3.78762">
        <ele>136.24</ele>
        <time>2019-06-17T12:01:25.999Z</time>
      </trkpt>
      <trkpt lat="49.51997" lon="3.78761">
        <ele>135.74</ele>
        <time>2019-06-17T12:01:35.999Z</time>
      </trkpt>
      <trkpt lat="49.51996" lon="3.78763">
        <ele>134.36</ele>
        <time>2019-06-17T12:01:50.999Z</time>
      </trkpt>
      <trkpt lat="49.51997" lon="3.78764">
        <ele>133.5</ele>
        <time>2019-06-17T12:02:00.999Z</time>
      </trkpt>
      <trkpt lat="49.51996" lon="3.78762">
        <ele>133.77</ele>
        <time>2019-06-17T12:02:10.999Z</time>
      </trkpt>
      <trkpt lat="49.51995" lon="3.78762">
        <ele>134.29</ele>
        <time>2019-06-17T12:02:20.999Z</time>
      </trkpt>
      <trkpt lat="49.51991" lon="3.78766">
        <ele>134.43</ele>
        <time>2019-06-17T12:02:30.999Z</time>
      </trkpt>
      <trkpt lat="49.51991" lon="3.78759">
        <ele>134.2</ele>
        <time>2019-06-17T12:02:40.999Z</time>
      </trkpt>
      <trkpt lat="49.51992" lon="3.7876">
        <ele>133.6</ele>
        <time>2019-06-17T12:02:50.999Z</time>
      </trkpt>
      <trkpt lat="49.51994" lon="3.78761">
        <ele>133.19</ele>
        <time>2019-06-17T12:03:06.999Z</time>
      </trkpt>
      <trkpt lat="49.51995" lon="3.78761">
        <ele>133.15</ele>
        <time>2019-06-17T12:03:16.999Z</time>
      </trkpt>
      <trkpt lat="49.51994" lon="3.78761">
        <ele>133</ele>
        <time>2019-06-17T12:03:28.999Z</time>
      </trkpt>
      <trkpt lat="49.51993" lon="3.78762">
        <ele>132.74</ele>
        <time>2019-06-17T12:03:40.999Z</time>
      </trkpt>
      <trkpt lat="49.51994" lon="3.78762">
        <ele>132.54</ele>
        <time>2019-06-17T12:03:52.999Z</time>
      </trkpt>
      <trkpt lat="49.51995" lon="3.78764">
        <ele>132.5</ele>
        <time>2019-06-17T12:04:02.999Z</time>
      </trkpt>
      <trkpt lat="49.51996" lon="3.78765">
        <ele>132.78</ele>
        <time>2019-06-17T12:04:21.999Z</time>
      </trkpt>
      <trkpt lat="49.51995" lon="3.78764">
        <ele>132.83</ele>
        <time>2019-06-17T12:04:31.999Z</time>
      </trkpt>
      <trkpt lat="49.51994" lon="3.78765">
        <ele>131.91</ele>
        <time>2019-06-17T12:05:42.999Z</time>
      </trkpt>
      <trkpt lat="49.51993" lon="3.78764">
        <ele>131.68</ele>
        <time>2019-06-17T12:05:52.999Z</time>
      </trkpt>
      <trkpt lat="49.5198" lon="3.78762">
        <ele>131.47</ele>
        <time>2019-06-17T12:06:02.999Z</time>
      </trkpt>
      <trkpt lat="49.51974" lon="3.78762">
        <ele>131.71</ele>
        <time>2019-06-17T12:06:12.999Z</time>
      </trkpt>
      <trkpt lat="49.51966" lon="3.78766">
        <ele>132.25</ele>
        <time>2019-06-17T12:06:22.999Z</time>
      </trkpt>
      <trkpt lat="49.51957" lon="3.78772">
        <ele>133.3</ele>
        <time>2019-06-17T12:06:32.999Z</time>
      </trkpt>
      <trkpt lat="49.51947" lon="3.7878">
        <ele>134.82</ele>
        <time>2019-06-17T12:06:42.999Z</time>
      </trkpt>
      <trkpt lat="49.51933" lon="3.78792">
        <ele>135.86</ele>
        <time>2019-06-17T12:06:52.999Z</time>
      </trkpt>
      <trkpt lat="49.51924" lon="3.78802">
        <ele>136.48</ele>
        <time>2019-06-17T12:07:02.999Z</time>
      </trkpt>
      <trkpt lat="49.51915" lon="3.78808">
        <ele>137.13</ele>
        <time>2019-06-17T12:07:12.999Z</time>
      </trkpt>
      <trkpt lat="49.51904" lon="3.78814">
        <ele>137.9</ele>
        <time>2019-06-17T12:07:22.999Z</time>
      </trkpt>
      <trkpt lat="49.51894" lon="3.78823">
        <ele>138.95</ele>
        <time>2019-06-17T12:07:32.999Z</time>
      </trkpt>
      <trkpt lat="49.51886" lon="3.78829">
        <ele>139.93</ele>
        <time>2019-06-17T12:07:42.999Z</time>
      </trkpt>
      <trkpt lat="49.51876" lon="3.78837">
        <ele>140.47</ele>
        <time>2019-06-17T12:07:52.999Z</time>
      </trkpt>
      <trkpt lat="49.51866" lon="3.78846">
        <ele>141.63</ele>
        <time>2019-06-17T12:08:02.999Z</time>
      </trkpt>
      <trkpt lat="49.51856" lon="3.78852">
        <ele>142.6</ele>
        <time>2019-06-17T12:08:12.999Z</time>
      </trkpt>
      <trkpt lat="49.51845" lon="3.78859">
        <ele>143.15</ele>
        <time>2019-06-17T12:08:22.999Z</time>
      </trkpt>
      <trkpt lat="49.51836" lon="3.78863">
        <ele>143.86</ele>
        <time>2019-06-17T12:08:32.999Z</time>
      </trkpt>
      <trkpt lat="49.51828" lon="3.78868">
        <ele>144.33</ele>
        <time>2019-06-17T12:08:42.999Z</time>
      </trkpt>
      <trkpt lat="49.51818" lon="3.78874">
        <ele>144.38</ele>
        <time>2019-06-17T12:08:52.999Z</time>
      </trkpt>
      <trkpt lat="49.51802" lon="3.78882">
        <ele>144.24</ele>
        <time>2019-06-17T12:09:02.999Z</time>
      </trkpt>
      <trkpt lat="49.51793" lon="3.78887">
        <ele>144.36</ele>
        <time>2019-06-17T12:09:12.999Z</time>
      </trkpt>
      <trkpt lat="49.51787" lon="3.7889">
        <ele>144.41</ele>
        <time>2019-06-17T12:09:22.999Z</time>
      </trkpt>
      <trkpt lat="49.51779" lon="3.78896">
        <ele>144.71</ele>
        <time>2019-06-17T12:09:32.999Z</time>
      </trkpt>
      <trkpt lat="49.51767" lon="3.78901">
        <ele>145.32</ele>
        <time>2019-06-17T12:09:42.999Z</time>
      </trkpt>
      <trkpt lat="49.51757" lon="3.78905">
        <ele>145.7</ele>
        <time>2019-06-17T12:09:52.999Z</time>
      </trkpt>
      <trkpt lat="49.51747" lon="3.78906">
        <ele>145.94</ele>
        <time>2019-06-17T12:10:02.999Z</time>
      </trkpt>
      <trkpt lat="49.51737" lon="3.78905">
        <ele>145.86</ele>
        <time>2019-06-17T12:10:12.999Z</time>
      </trkpt>
      <trkpt lat="49.51725" lon="3.78902">
        <ele>145.85</ele>
        <time>2019-06-17T12:10:22.999Z</time>
      </trkpt>
      <trkpt lat="49.51713" lon="3.78898">
        <ele>145.82</ele>
        <time>2019-06-17T12:10:32.999Z</time>
      </trkpt>
      <trkpt lat="49.51702" lon="3.78895">
        <ele>145.52</ele>
        <time>2019-06-17T12:10:42.999Z</time>
      </trkpt>
      <trkpt lat="49.51692" lon="3.78891">
        <ele>145.33</ele>
        <time>2019-06-17T12:10:52.999Z</time>
      </trkpt>
      <trkpt lat="49.51679" lon="3.78889">
        <ele>145.74</ele>
        <time>2019-06-17T12:11:02.999Z</time>
      </trkpt>
      <trkpt lat="49.51667" lon="3.78884">
        <ele>146.36</ele>
        <time>2019-06-17T12:11:12.999Z</time>
      </trkpt>
      <trkpt lat="49.51656" lon="3.78879">
        <ele>147.01</ele>
        <time>2019-06-17T12:11:22.999Z</time>
      </trkpt>
      <trkpt lat="49.51646" lon="3.78877">
        <ele>147.31</ele>
        <time>2019-06-17T12:11:32.999Z</time>
      </trkpt>
      <trkpt lat="49.51635" lon="3.78873">
        <ele>147.63</ele>
        <time>2019-06-17T12:11:42.999Z</time>
      </trkpt>
      <trkpt lat="49.51623" lon="3.78876">
        <ele>148.35</ele>
        <time>2019-06-17T12:11:52.999Z</time>
      </trkpt>
      <trkpt lat="49.51612" lon="3.78884">
        <ele>149.33</ele>
        <time>2019-06-17T12:12:02.999Z</time>
      </trkpt>
      <trkpt lat="49.51601" lon="3.78898">
        <ele>150.47</ele>
        <time>2019-06-17T12:12:12.999Z</time>
      </trkpt>
      <trkpt lat="49.51593" lon="3.7891">
        <ele>151.68</ele>
        <time>2019-06-17T12:12:22.999Z</time>
      </trkpt>
      <trkpt lat="49.51586" lon="3.78921">
        <ele>153.4</ele>
        <time>2019-06-17T12:12:32.999Z</time>
      </trkpt>
      <trkpt lat="49.51579" lon="3.78938">
        <ele>155.13</ele>
        <time>2019-06-17T12:12:42.999Z</time>
      </trkpt>
      <trkpt lat="49.51574" lon="3.78953">
        <ele>156.64</ele>
        <time>2019-06-17T12:12:52.999Z</time>
      </trkpt>
      <trkpt lat="49.5157" lon="3.78969">
        <ele>157.04</ele>
        <time>2019-06-17T12:13:02.999Z</time>
      </trkpt>
      <trkpt lat="49.51566" lon="3.78986">
        <ele>156.73</ele>
        <time>2019-06-17T12:13:12.999Z</time>
      </trkpt>
      <trkpt lat="49.51562" lon="3.79">
        <ele>156.19</ele>
        <time>2019-06-17T12:13:22.999Z</time>
      </trkpt>
      <trkpt lat="49.51558" lon="3.79012">
        <ele>155.34</ele>
        <time>2019-06-17T12:13:32.999Z</time>
      </trkpt>
      <trkpt lat="49.51552" lon="3.79023">
        <ele>154.31</ele>
        <time>2019-06-17T12:13:42.999Z</time>
      </trkpt>
      <trkpt lat="49.5154" lon="3.79032">
        <ele>153.13</ele>
        <time>2019-06-17T12:13:52.999Z</time>
      </trkpt>
      <trkpt lat="49.5153" lon="3.79038">
        <ele>152.21</ele>
        <time>2019-06-17T12:14:02.999Z</time>
      </trkpt>
      <trkpt lat="49.51522" lon="3.79047">
        <ele>151.41</ele>
        <time>2019-06-17T12:14:12.999Z</time>
      </trkpt>
      <trkpt lat="49.51512" lon="3.79057">
        <ele>150.93</ele>
        <time>2019-06-17T12:14:22.999Z</time>
      </trkpt>
      <trkpt lat="49.51502" lon="3.79061">
        <ele>150.72</ele>
        <time>2019-06-17T12:14:32.999Z</time>
      </trkpt>
      <trkpt lat="49.51495" lon="3.79071">
        <ele>150.61</ele>
        <time>2019-06-17T12:14:42.999Z</time>
      </trkpt>
      <trkpt lat="49.51495" lon="3.79084">
        <ele>150.12</ele>
        <time>2019-06-17T12:14:52.999Z</time>
      </trkpt>
      <trkpt lat="49.51496" lon="3.791">
        <ele>149.36</ele>
        <time>2019-06-17T12:15:02.999Z</time>
      </trkpt>
      <trkpt lat="49.51502" lon="3.79112">
        <ele>148.73</ele>
        <time>2019-06-17T12:15:12.999Z</time>
      </trkpt>
      <trkpt lat="49.51507" lon="3.79129">
        <ele>148.3</ele>
        <time>2019-06-17T12:15:22.999Z</time>
      </trkpt>
      <trkpt lat="49.51512" lon="3.79155">
        <ele>147.53</ele>
        <time>2019-06-17T12:15:32.999Z</time>
      </trkpt>
      <trkpt lat="49.51514" lon="3.79175">
        <ele>147.16</ele>
        <time>2019-06-17T12:15:42.999Z</time>
      </trkpt>
      <trkpt lat="49.51517" lon="3.79192">
        <ele>146.58</ele>
        <time>2019-06-17T12:15:52.999Z</time>
      </trkpt>
      <trkpt lat="49.51522" lon="3.7921">
        <ele>145.8</ele>
        <time>2019-06-17T12:16:02.999Z</time>
      </trkpt>
      <trkpt lat="49.51529" lon="3.79217">
        <ele>145.24</ele>
        <time>2019-06-17T12:16:12.999Z</time>
      </trkpt>
      <trkpt lat="49.51529" lon="3.79224">
        <ele>144.77</ele>
        <time>2019-06-17T12:16:22.999Z</time>
      </trkpt>
      <trkpt lat="49.5153" lon="3.79232">
        <ele>144.17</ele>
        <time>2019-06-17T12:16:32.999Z</time>
      </trkpt>
      <trkpt lat="49.51535" lon="3.79248">
        <ele>143.34</ele>
        <time>2019-06-17T12:16:42.999Z</time>
      </trkpt>
      <trkpt lat="49.51539" lon="3.79268">
        <ele>142.66</ele>
        <time>2019-06-17T12:16:52.999Z</time>
      </trkpt>
      <trkpt lat="49.51544" lon="3.79289">
        <ele>142.25</ele>
        <time>2019-06-17T12:17:02.999Z</time>
      </trkpt>
      <trkpt lat="49.51548" lon="3.79309">
        <ele>142.16</ele>
        <time>2019-06-17T12:17:12.999Z</time>
      </trkpt>
      <trkpt lat="49.51552" lon="3.79323">
        <ele>141.65</ele>
        <time>2019-06-17T12:17:22.999Z</time>
      </trkpt>
      <trkpt lat="49.51557" lon="3.7934">
        <ele>141.17</ele>
        <time>2019-06-17T12:17:32.999Z</time>
      </trkpt>
      <trkpt lat="49.5156" lon="3.79357">
        <ele>140.6</ele>
        <time>2019-06-17T12:17:42.999Z</time>
      </trkpt>
      <trkpt lat="49.51564" lon="3.79372">
        <ele>140.47</ele>
        <time>2019-06-17T12:17:52.999Z</time>
      </trkpt>
      <trkpt lat="49.51567" lon="3.79388">
        <ele>140.5</ele>
        <time>2019-06-17T12:18:02.999Z</time>
      </trkpt>
      <trkpt lat="49.51571" lon="3.79405">
        <ele>140.02</ele>
        <time>2019-06-17T12:18:12.999Z</time>
      </trkpt>
      <trkpt lat="49.51576" lon="3.79419">
        <ele>139.19</ele>
        <time>2019-06-17T12:18:22.999Z</time>
      </trkpt>
      <trkpt lat="49.5158" lon="3.79431">
        <ele>138.2</ele>
        <time>2019-06-17T12:18:32.999Z</time>
      </trkpt>
      <trkpt lat="49.51583" lon="3.79444">
        <ele>137.25</ele>
        <time>2019-06-17T12:18:42.999Z</time>
      </trkpt>
      <trkpt lat="49.51587" lon="3.79461">
        <ele>136.46</ele>
        <time>2019-06-17T12:18:52.999Z</time>
      </trkpt>
      <trkpt lat="49.5159" lon="3.79476">
        <ele>135.77</ele>
        <time>2019-06-17T12:19:02.999Z</time>
      </trkpt>
      <trkpt lat="49.51594" lon="3.7949">
        <ele>134.8</ele>
        <time>2019-06-17T12:19:12.999Z</time>
      </trkpt>
      <trkpt lat="49.516" lon="3.79504">
        <ele>133.68</ele>
        <time>2019-06-17T12:19:22.999Z</time>
      </trkpt>
      <trkpt lat="49.51605" lon="3.79521">
        <ele>132.62</ele>
        <time>2019-06-17T12:19:32.999Z</time>
      </trkpt>
      <trkpt lat="49.51608" lon="3.79535">
        <ele>131.7</ele>
        <time>2019-06-17T12:19:42.999Z</time>
      </trkpt>
      <trkpt lat="49.51611" lon="3.79549">
        <ele>130.99</ele>
        <time>2019-06-17T12:19:52.999Z</time>
      </trkpt>
      <trkpt lat="49.51616" lon="3.79561">
        <ele>130.04</ele>
        <time>2019-06-17T12:20:02.999Z</time>
      </trkpt>
      <trkpt lat="49.51619" lon="3.79578">
        <ele>129.19</ele>
        <time>2019-06-17T12:20:12.999Z</time>
      </trkpt>
      <trkpt lat="49.51625" lon="3.79596">
        <ele>128.57</ele>
        <time>2019-06-17T12:20:22.999Z</time>
      </trkpt>
      <trkpt lat="49.51631" lon="3.79609">
        <ele>128.03</ele>
        <time>2019-06-17T12:20:32.999Z</time>
      </trkpt>
      <trkpt lat="49.51637" lon="3.79623">
        <ele>127.49</ele>
        <time>2019-06-17T12:20:42.999Z</time>
      </trkpt>
      <trkpt lat="49.51633" lon="3.79635">
        <ele>127.48</ele>
        <time>2019-06-17T12:20:52.999Z</time>
      </trkpt>
      <trkpt lat="49.51625" lon="3.7965">
        <ele>128.1</ele>
        <time>2019-06-17T12:21:02.999Z</time>
      </trkpt>
      <trkpt lat="49.51619" lon="3.79667">
        <ele>128.54</ele>
        <time>2019-06-17T12:21:12.999Z</time>
      </trkpt>
      <trkpt lat="49.51613" lon="3.79684">
        <ele>129.63</ele>
        <time>2019-06-17T12:21:22.999Z</time>
      </trkpt>
      <trkpt lat="49.51606" lon="3.79699">
        <ele>131.18</ele>
        <time>2019-06-17T12:21:32.999Z</time>
      </trkpt>
      <trkpt lat="49.51599" lon="3.79716">
        <ele>132.33</ele>
        <time>2019-06-17T12:21:42.999Z</time>
      </trkpt>
      <trkpt lat="49.51593" lon="3.79731">
        <ele>133.04</ele>
        <time>2019-06-17T12:21:52.999Z</time>
      </trkpt>
      <trkpt lat="49.51592" lon="3.79749">
        <ele>133.29</ele>
        <time>2019-06-17T12:22:02.999Z</time>
      </trkpt>
      <trkpt lat="49.51597" lon="3.79766">
        <ele>132.53</ele>
        <time>2019-06-17T12:22:12.999Z</time>
      </trkpt>
      <trkpt lat="49.51604" lon="3.79782">
        <ele>131.58</ele>
        <time>2019-06-17T12:22:22.999Z</time>
      </trkpt>
      <trkpt lat="49.51616" lon="3.79793">
        <ele>130.84</ele>
        <time>2019-06-17T12:22:32.999Z</time>
      </trkpt>
      <trkpt lat="49.51623" lon="3.79804">
        <ele>130.22</ele>
        <time>2019-06-17T12:22:42.999Z</time>
      </trkpt>
      <trkpt lat="49.5163" lon="3.79815">
        <ele>129.77</ele>
        <time>2019-06-17T12:22:52.999Z</time>
      </trkpt>
      <trkpt lat="49.51638" lon="3.79826">
        <ele>129.21</ele>
        <time>2019-06-17T12:23:02.999Z</time>
      </trkpt>
      <trkpt lat="49.51648" lon="3.79836">
        <ele>128.29</ele>
        <time>2019-06-17T12:23:12.999Z</time>
      </trkpt>
      <trkpt lat="49.51656" lon="3.79846">
        <ele>127.37</ele>
        <time>2019-06-17T12:23:22.999Z</time>
      </trkpt>
      <trkpt lat="49.51663" lon="3.79859">
        <ele>126.49</ele>
        <time>2019-06-17T12:23:32.999Z</time>
      </trkpt>
      <trkpt lat="49.51666" lon="3.79874">
        <ele>126.08</ele>
        <time>2019-06-17T12:23:42.999Z</time>
      </trkpt>
      <trkpt lat="49.51666" lon="3.79891">
        <ele>126.34</ele>
        <time>2019-06-17T12:23:52.999Z</time>
      </trkpt>
      <trkpt lat="49.51664" lon="3.79908">
        <ele>126.54</ele>
        <time>2019-06-17T12:24:02.999Z</time>
      </trkpt>
      <trkpt lat="49.51662" lon="3.79925">
        <ele>126.8</ele>
        <time>2019-06-17T12:24:12.999Z</time>
      </trkpt>
      <trkpt lat="49.51661" lon="3.79941">
        <ele>127.47</ele>
        <time>2019-06-17T12:24:22.999Z</time>
      </trkpt>
      <trkpt lat="49.51661" lon="3.79958">
        <ele>127.77</ele>
        <time>2019-06-17T12:24:32.999Z</time>
      </trkpt>
      <trkpt lat="49.5166" lon="3.79975">
        <ele>128.46</ele>
        <time>2019-06-17T12:24:42.999Z</time>
      </trkpt>
      <trkpt lat="49.5166" lon="3.79991">
        <ele>129.32</ele>
        <time>2019-06-17T12:24:52.999Z</time>
      </trkpt>
      <trkpt lat="49.5166" lon="3.80007">
        <ele>130.74</ele>
        <time>2019-06-17T12:25:02.999Z</time>
      </trkpt>
      <trkpt lat="49.51659" lon="3.80024">
        <ele>132.65</ele>
        <time>2019-06-17T12:25:12.999Z</time>
      </trkpt>
      <trkpt lat="49.51657" lon="3.80039">
        <ele>134.26</ele>
        <time>2019-06-17T12:25:22.999Z</time>
      </trkpt>
      <trkpt lat="49.51657" lon="3.80055">
        <ele>135.76</ele>
        <time>2019-06-17T12:25:32.999Z</time>
      </trkpt>
      <trkpt lat="49.51655" lon="3.8007">
        <ele>137.62</ele>
        <time>2019-06-17T12:25:42.999Z</time>
      </trkpt>
      <trkpt lat="49.51653" lon="3.80086">
        <ele>139.77</ele>
        <time>2019-06-17T12:25:52.999Z</time>
      </trkpt>
      <trkpt lat="49.51652" lon="3.80101">
        <ele>142.3</ele>
        <time>2019-06-17T12:26:02.999Z</time>
      </trkpt>
      <trkpt lat="49.51651" lon="3.80117">
        <ele>144.62</ele>
        <time>2019-06-17T12:26:12.999Z</time>
      </trkpt>
      <trkpt lat="49.51649" lon="3.80132">
        <ele>147.02</ele>
        <time>2019-06-17T12:26:22.999Z</time>
      </trkpt>
      <trkpt lat="49.51646" lon="3.80147">
        <ele>149</ele>
        <time>2019-06-17T12:26:32.999Z</time>
      </trkpt>
      <trkpt lat="49.51645" lon="3.80161">
        <ele>149.91</ele>
        <time>2019-06-17T12:26:42.999Z</time>
      </trkpt>
      <trkpt lat="49.51645" lon="3.80175">
        <ele>150.39</ele>
        <time>2019-06-17T12:26:52.999Z</time>
      </trkpt>
      <trkpt lat="49.51645" lon="3.80188">
        <ele>150.63</ele>
        <time>2019-06-17T12:27:02.999Z</time>
      </trkpt>
      <trkpt lat="49.51641" lon="3.80206">
        <ele>151.07</ele>
        <time>2019-06-17T12:27:12.999Z</time>
      </trkpt>
      <trkpt lat="49.51636" lon="3.80222">
        <ele>151.89</ele>
        <time>2019-06-17T12:27:22.999Z</time>
      </trkpt>
      <trkpt lat="49.51634" lon="3.80236">
        <ele>152.33</ele>
        <time>2019-06-17T12:27:32.999Z</time>
      </trkpt>
      <trkpt lat="49.51634" lon="3.80252">
        <ele>152.17</ele>
        <time>2019-06-17T12:27:42.999Z</time>
      </trkpt>
      <trkpt lat="49.51634" lon="3.80268">
        <ele>152.31</ele>
        <time>2019-06-17T12:27:52.999Z</time>
      </trkpt>
      <trkpt lat="49.51637" lon="3.80287">
        <ele>153.15</ele>
        <time>2019-06-17T12:28:02.999Z</time>
      </trkpt>
      <trkpt lat="49.51639" lon="3.80303">
        <ele>153.59</ele>
        <time>2019-06-17T12:28:12.999Z</time>
      </trkpt>
      <trkpt lat="49.51639" lon="3.80314">
        <ele>153.14</ele>
        <time>2019-06-17T12:28:22.999Z</time>
      </trkpt>
      <trkpt lat="49.51639" lon="3.80328">
        <ele>153.05</ele>
        <time>2019-06-17T12:28:32.999Z</time>
      </trkpt>
      <trkpt lat="49.51633" lon="3.80342">
        <ele>154.32</ele>
        <time>2019-06-17T12:28:42.999Z</time>
      </trkpt>
      <trkpt lat="49.51628" lon="3.80357">
        <ele>156.24</ele>
        <time>2019-06-17T12:28:52.999Z</time>
      </trkpt>
      <trkpt lat="49.51622" lon="3.80372">
        <ele>158.59</ele>
        <time>2019-06-17T12:29:02.999Z</time>
      </trkpt>
      <trkpt lat="49.51618" lon="3.80389">
        <ele>160.47</ele>
        <time>2019-06-17T12:29:12.999Z</time>
      </trkpt>
      <trkpt lat="49.51614" lon="3.80404">
        <ele>162.29</ele>
        <time>2019-06-17T12:29:22.999Z</time>
      </trkpt>
      <trkpt lat="49.51611" lon="3.80419">
        <ele>163.9</ele>
        <time>2019-06-17T12:29:32.999Z</time>
      </trkpt>
      <trkpt lat="49.51609" lon="3.80432">
        <ele>165.76</ele>
        <time>2019-06-17T12:29:42.999Z</time>
      </trkpt>
      <trkpt lat="49.51606" lon="3.8045">
        <ele>167.59</ele>
        <time>2019-06-17T12:29:52.999Z</time>
      </trkpt>
      <trkpt lat="49.51605" lon="3.80466">
        <ele>169.55</ele>
        <time>2019-06-17T12:30:02.999Z</time>
      </trkpt>
      <trkpt lat="49.51602" lon="3.80482">
        <ele>171.52</ele>
        <time>2019-06-17T12:30:12.999Z</time>
      </trkpt>
      <trkpt lat="49.51604" lon="3.80498">
        <ele>173.24</ele>
        <time>2019-06-17T12:30:22.999Z</time>
      </trkpt>
      <trkpt lat="49.51607" lon="3.80516">
        <ele>173.93</ele>
        <time>2019-06-17T12:30:32.999Z</time>
      </trkpt>
      <trkpt lat="49.51608" lon="3.8053">
        <ele>174.9</ele>
        <time>2019-06-17T12:30:42.999Z</time>
      </trkpt>
      <trkpt lat="49.51608" lon="3.80546">
        <ele>175.8</ele>
        <time>2019-06-17T12:30:52.999Z</time>
      </trkpt>
      <trkpt lat="49.51606" lon="3.80558">
        <ele>177.02</ele>
        <time>2019-06-17T12:31:02.000Z</time>
      </trkpt>
      <trkpt lat="49.51606" lon="3.80576">
        <ele>178.03</ele>
        <time>2019-06-17T12:31:12.000Z</time>
      </trkpt>
      <trkpt lat="49.51608" lon="3.80592">
        <ele>178.11</ele>
        <time>2019-06-17T12:31:22.000Z</time>
      </trkpt>
      <trkpt lat="49.51609" lon="3.80609">
        <ele>177.81</ele>
        <time>2019-06-17T12:31:32.000Z</time>
      </trkpt>
      <trkpt lat="49.51611" lon="3.80625">
        <ele>177.96</ele>
        <time>2019-06-17T12:31:42.000Z</time>
      </trkpt>
      <trkpt lat="49.51618" lon="3.80646">
        <ele>176.91</ele>
        <time>2019-06-17T12:31:52.000Z</time>
      </trkpt>
      <trkpt lat="49.51625" lon="3.80663">
        <ele>175.93</ele>
        <time>2019-06-17T12:32:02.000Z</time>
      </trkpt>
      <trkpt lat="49.51632" lon="3.80677">
        <ele>175.42</ele>
        <time>2019-06-17T12:32:12.000Z</time>
      </trkpt>
      <trkpt lat="49.51637" lon="3.80689">
        <ele>175.95</ele>
        <time>2019-06-17T12:32:22.000Z</time>
      </trkpt>
      <trkpt lat="49.51644" lon="3.807">
        <ele>176.36</ele>
        <time>2019-06-17T12:32:32.000Z</time>
      </trkpt>
      <trkpt lat="49.5165" lon="3.80713">
        <ele>177.11</ele>
        <time>2019-06-17T12:32:42.000Z</time>
      </trkpt>
      <trkpt lat="49.51657" lon="3.8073">
        <ele>177.31</ele>
        <time>2019-06-17T12:32:52.000Z</time>
      </trkpt>
      <trkpt lat="49.51663" lon="3.80745">
        <ele>176.84</ele>
        <time>2019-06-17T12:33:02.000Z</time>
      </trkpt>
      <trkpt lat="49.51669" lon="3.80755">
        <ele>176.05</ele>
        <time>2019-06-17T12:33:12.000Z</time>
      </trkpt>
      <trkpt lat="49.51675" lon="3.80763">
        <ele>176.2</ele>
        <time>2019-06-17T12:33:22.000Z</time>
      </trkpt>
      <trkpt lat="49.51682" lon="3.80771">
        <ele>176.7</ele>
        <time>2019-06-17T12:33:32.000Z</time>
      </trkpt>
      <trkpt lat="49.51689" lon="3.80777">
        <ele>177.7</ele>
        <time>2019-06-17T12:33:42.000Z</time>
      </trkpt>
      <trkpt lat="49.51692" lon="3.80778">
        <ele>178.36</ele>
        <time>2019-06-17T12:33:52.000Z</time>
      </trkpt>
      <trkpt lat="49.51694" lon="3.8078">
        <ele>178.97</ele>
        <time>2019-06-17T12:34:02.000Z</time>
      </trkpt>
      <trkpt lat="49.51693" lon="3.80782">
        <ele>180.1</ele>
        <time>2019-06-17T12:34:12.000Z</time>
      </trkpt>
      <trkpt lat="49.5169" lon="3.80776">
        <ele>181.02</ele>
        <time>2019-06-17T12:34:22.000Z</time>
      </trkpt>
      <trkpt lat="49.5169" lon="3.80774">
        <ele>181.47</ele>
        <time>2019-06-17T12:34:32.000Z</time>
      </trkpt>
      <trkpt lat="49.5169" lon="3.80771">
        <ele>181</ele>
        <time>2019-06-17T12:35:15.000Z</time>
      </trkpt>
      <trkpt lat="49.5169" lon="3.80769">
        <ele>180.89</ele>
        <time>2019-06-17T12:35:25.000Z</time>
      </trkpt>
      <trkpt lat="49.51691" lon="3.80769">
        <ele>180.09</ele>
        <time>2019-06-17T12:35:39.000Z</time>
      </trkpt>
      <trkpt lat="49.5169" lon="3.80776">
        <ele>187.53</ele>
        <time>2019-06-17T12:38:05.000Z</time>
      </trkpt>
      <trkpt lat="49.51686" lon="3.80794">
        <ele>187.86</ele>
        <time>2019-06-17T12:38:15.000Z</time>
      </trkpt>
      <trkpt lat="49.51684" lon="3.80795">
        <ele>187.36</ele>
        <time>2019-06-17T12:38:33.000Z</time>
      </trkpt>
      <trkpt lat="49.51678" lon="3.80794">
        <ele>186.79</ele>
        <time>2019-06-17T12:38:43.000Z</time>
      </trkpt>
      <trkpt lat="49.51676" lon="3.808">
        <ele>185.12</ele>
        <time>2019-06-17T12:38:53.000Z</time>
      </trkpt>
      <trkpt lat="49.51673" lon="3.80806">
        <ele>183.58</ele>
        <time>2019-06-17T12:39:03.000Z</time>
      </trkpt>
      <trkpt lat="49.51671" lon="3.80815">
        <ele>182.3</ele>
        <time>2019-06-17T12:39:13.000Z</time>
      </trkpt>
      <trkpt lat="49.51667" lon="3.8083">
        <ele>181.2</ele>
        <time>2019-06-17T12:39:23.000Z</time>
      </trkpt>
      <trkpt lat="49.51666" lon="3.80842">
        <ele>180.11</ele>
        <time>2019-06-17T12:39:33.000Z</time>
      </trkpt>
      <trkpt lat="49.51664" lon="3.80857">
        <ele>179.22</ele>
        <time>2019-06-17T12:39:43.000Z</time>
      </trkpt>
      <trkpt lat="49.5166" lon="3.8087">
        <ele>178.48</ele>
        <time>2019-06-17T12:39:53.000Z</time>
      </trkpt>
      <trkpt lat="49.51657" lon="3.80884">
        <ele>178.34</ele>
        <time>2019-06-17T12:40:03.000Z</time>
      </trkpt>
      <trkpt lat="49.51655" lon="3.80903">
        <ele>178.82</ele>
        <time>2019-06-17T12:40:13.000Z</time>
      </trkpt>
      <trkpt lat="49.5165" lon="3.80917">
        <ele>179.77</ele>
        <time>2019-06-17T12:40:23.000Z</time>
      </trkpt>
      <trkpt lat="49.51648" lon="3.80924">
        <ele>181.08</ele>
        <time>2019-06-17T12:40:33.000Z</time>
      </trkpt>
      <trkpt lat="49.51644" lon="3.80935">
        <ele>184.16</ele>
        <time>2019-06-17T12:40:43.000Z</time>
      </trkpt>
      <trkpt lat="49.51642" lon="3.80949">
        <ele>187.26</ele>
        <time>2019-06-17T12:40:53.000Z</time>
      </trkpt>
      <trkpt lat="49.51642" lon="3.8097">
        <ele>189.09</ele>
        <time>2019-06-17T12:41:03.000Z</time>
      </trkpt>
      <trkpt lat="49.51645" lon="3.80989">
        <ele>189.68</ele>
        <time>2019-06-17T12:41:13.000Z</time>
      </trkpt>
      <trkpt lat="49.51648" lon="3.81006">
        <ele>189.03</ele>
        <time>2019-06-17T12:41:23.000Z</time>
      </trkpt>
      <trkpt lat="49.51652" lon="3.81024">
        <ele>188.43</ele>
        <time>2019-06-17T12:41:33.000Z</time>
      </trkpt>
      <trkpt lat="49.51653" lon="3.81043">
        <ele>187.84</ele>
        <time>2019-06-17T12:41:43.000Z</time>
      </trkpt>
      <trkpt lat="49.51653" lon="3.81059">
        <ele>188.04</ele>
        <time>2019-06-17T12:41:53.000Z</time>
      </trkpt>
      <trkpt lat="49.5165" lon="3.8107">
        <ele>189.25</ele>
        <time>2019-06-17T12:42:03.000Z</time>
      </trkpt>
      <trkpt lat="49.51646" lon="3.81079">
        <ele>190.83</ele>
        <time>2019-06-17T12:42:13.000Z</time>
      </trkpt>
      <trkpt lat="49.51641" lon="3.81087">
        <ele>192.54</ele>
        <time>2019-06-17T12:42:23.000Z</time>
      </trkpt>
      <trkpt lat="49.51636" lon="3.81097">
        <ele>193.71</ele>
        <time>2019-06-17T12:42:33.000Z</time>
      </trkpt>
      <trkpt lat="49.51629" lon="3.81108">
        <ele>195.06</ele>
        <time>2019-06-17T12:42:43.000Z</time>
      </trkpt>
      <trkpt lat="49.51624" lon="3.81119">
        <ele>196.55</ele>
        <time>2019-06-17T12:42:53.000Z</time>
      </trkpt>
      <trkpt lat="49.51619" lon="3.81132">
        <ele>197.44</ele>
        <time>2019-06-17T12:43:03.000Z</time>
      </trkpt>
      <trkpt lat="49.51615" lon="3.81147">
        <ele>197.96</ele>
        <time>2019-06-17T12:43:13.000Z</time>
      </trkpt>
      <trkpt lat="49.51613" lon="3.81164">
        <ele>198.41</ele>
        <time>2019-06-17T12:43:23.000Z</time>
      </trkpt>
      <trkpt lat="49.5161" lon="3.8118">
        <ele>198.99</ele>
        <time>2019-06-17T12:43:33.000Z</time>
      </trkpt>
      <trkpt lat="49.51607" lon="3.81196">
        <ele>199.84</ele>
        <time>2019-06-17T12:43:43.000Z</time>
      </trkpt>
      <trkpt lat="49.51604" lon="3.81209">
        <ele>199.73</ele>
        <time>2019-06-17T12:43:53.000Z</time>
      </trkpt>
      <trkpt lat="49.51599" lon="3.81223">
        <ele>199.28</ele>
        <time>2019-06-17T12:44:03.000Z</time>
      </trkpt>
      <trkpt lat="49.51594" lon="3.81236">
        <ele>198.84</ele>
        <time>2019-06-17T12:44:13.000Z</time>
      </trkpt>
      <trkpt lat="49.51591" lon="3.81249">
        <ele>198.84</ele>
        <time>2019-06-17T12:44:23.000Z</time>
      </trkpt>
      <trkpt lat="49.51584" lon="3.81262">
        <ele>198.52</ele>
        <time>2019-06-17T12:44:33.000Z</time>
      </trkpt>
      <trkpt lat="49.51578" lon="3.81275">
        <ele>198.29</ele>
        <time>2019-06-17T12:44:43.000Z</time>
      </trkpt>
      <trkpt lat="49.51575" lon="3.81288">
        <ele>198.02</ele>
        <time>2019-06-17T12:44:53.000Z</time>
      </trkpt>
      <trkpt lat="49.51569" lon="3.81301">
        <ele>196.88</ele>
        <time>2019-06-17T12:45:03.000Z</time>
      </trkpt>
      <trkpt lat="49.51562" lon="3.8132">
        <ele>196.53</ele>
        <time>2019-06-17T12:45:13.000Z</time>
      </trkpt>
      <trkpt lat="49.51557" lon="3.81334">
        <ele>196.92</ele>
        <time>2019-06-17T12:45:23.000Z</time>
      </trkpt>
      <trkpt lat="49.51552" lon="3.81343">
        <ele>197.8</ele>
        <time>2019-06-17T12:45:33.000Z</time>
      </trkpt>
      <trkpt lat="49.51545" lon="3.81348">
        <ele>199.32</ele>
        <time>2019-06-17T12:45:43.000Z</time>
      </trkpt>
      <trkpt lat="49.51541" lon="3.81357">
        <ele>200.25</ele>
        <time>2019-06-17T12:45:53.000Z</time>
      </trkpt>
      <trkpt lat="49.51535" lon="3.8137">
        <ele>200.66</ele>
        <time>2019-06-17T12:46:03.000Z</time>
      </trkpt>
      <trkpt lat="49.5153" lon="3.81379">
        <ele>201.42</ele>
        <time>2019-06-17T12:46:13.000Z</time>
      </trkpt>
      <trkpt lat="49.51521" lon="3.81393">
        <ele>202.51</ele>
        <time>2019-06-17T12:46:23.000Z</time>
      </trkpt>
      <trkpt lat="49.51517" lon="3.81404">
        <ele>203.45</ele>
        <time>2019-06-17T12:46:33.000Z</time>
      </trkpt>
      <trkpt lat="49.51523" lon="3.81426">
        <ele>204.09</ele>
        <time>2019-06-17T12:46:43.000Z</time>
      </trkpt>
      <trkpt lat="49.51526" lon="3.81439">
        <ele>200.62</ele>
        <time>2019-06-17T12:46:53.000Z</time>
      </trkpt>
      <trkpt lat="49.51525" lon="3.81447">
        <ele>202.9</ele>
        <time>2019-06-17T12:47:03.000Z</time>
      </trkpt>
      <trkpt lat="49.51527" lon="3.81463">
        <ele>200.03</ele>
        <time>2019-06-17T12:47:13.000Z</time>
      </trkpt>
      <trkpt lat="49.51527" lon="3.81468">
        <ele>188.75</ele>
        <time>2019-06-17T12:47:23.000Z</time>
      </trkpt>
      <trkpt lat="49.51525" lon="3.81468">
        <ele>-29.88</ele>
        <time>2019-06-17T12:47:33.000Z</time>
      </trkpt>
      <trkpt lat="49.51522" lon="3.8147">
        <ele>205.03</ele>
        <time>2019-06-17T12:47:43.000Z</time>
      </trkpt>
      <trkpt lat="49.51515" lon="3.81477">
        <ele>207.29</ele>
        <time>2019-06-17T12:47:53.000Z</time>
      </trkpt>
      <trkpt lat="49.51513" lon="3.8149">
        <ele>208.81</ele>
        <time>2019-06-17T12:48:03.000Z</time>
      </trkpt>
      <trkpt lat="49.51511" lon="3.81501">
        <ele>210.04</ele>
        <time>2019-06-17T12:48:13.000Z</time>
      </trkpt>
      <trkpt lat="49.51511" lon="3.81513">
        <ele>211.2</ele>
        <time>2019-06-17T12:48:23.000Z</time>
      </trkpt>
      <trkpt lat="49.51506" lon="3.81531">
        <ele>211.62</ele>
        <time>2019-06-17T12:48:33.000Z</time>
      </trkpt>
      <trkpt lat="49.51502" lon="3.81552">
        <ele>211.36</ele>
        <time>2019-06-17T12:48:43.000Z</time>
      </trkpt>
      <trkpt lat="49.515" lon="3.81568">
        <ele>211.53</ele>
        <time>2019-06-17T12:48:53.000Z</time>
      </trkpt>
      <trkpt lat="49.51496" lon="3.81587">
        <ele>211.65</ele>
        <time>2019-06-17T12:49:03.000Z</time>
      </trkpt>
      <trkpt lat="49.51493" lon="3.81608">
        <ele>212.42</ele>
        <time>2019-06-17T12:49:13.000Z</time>
      </trkpt>
      <trkpt lat="49.51491" lon="3.81629">
        <ele>213.08</ele>
        <time>2019-06-17T12:49:23.000Z</time>
      </trkpt>
      <trkpt lat="49.51492" lon="3.81645">
        <ele>213.07</ele>
        <time>2019-06-17T12:49:33.000Z</time>
      </trkpt>
      <trkpt lat="49.51489" lon="3.8166">
        <ele>212.27</ele>
        <time>2019-06-17T12:49:43.000Z</time>
      </trkpt>
      <trkpt lat="49.51488" lon="3.8168">
        <ele>211.08</ele>
        <time>2019-06-17T12:49:53.000Z</time>
      </trkpt>
      <trkpt lat="49.51485" lon="3.81693">
        <ele>210.3</ele>
        <time>2019-06-17T12:50:03.000Z</time>
      </trkpt>
      <trkpt lat="49.51483" lon="3.81707">
        <ele>209.5</ele>
        <time>2019-06-17T12:50:13.000Z</time>
      </trkpt>
      <trkpt lat="49.51482" lon="3.81723">
        <ele>208.97</ele>
        <time>2019-06-17T12:50:23.000Z</time>
      </trkpt>
      <trkpt lat="49.5148" lon="3.81744">
        <ele>208.6</ele>
        <time>2019-06-17T12:50:33.000Z</time>
      </trkpt>
      <trkpt lat="49.51476" lon="3.81764">
        <ele>208.69</ele>
        <time>2019-06-17T12:50:43.000Z</time>
      </trkpt>
      <trkpt lat="49.51475" lon="3.8178">
        <ele>209.43</ele>
        <time>2019-06-17T12:50:53.000Z</time>
      </trkpt>
      <trkpt lat="49.51475" lon="3.81802">
        <ele>210.42</ele>
        <time>2019-06-17T12:51:03.000Z</time>
      </trkpt>
      <trkpt lat="49.51473" lon="3.8182">
        <ele>210.64</ele>
        <time>2019-06-17T12:51:13.000Z</time>
      </trkpt>
      <trkpt lat="49.51473" lon="3.81838">
        <ele>210.34</ele>
        <time>2019-06-17T12:51:23.000Z</time>
      </trkpt>
      <trkpt lat="49.51472" lon="3.81861">
        <ele>209.63</ele>
        <time>2019-06-17T12:51:33.000Z</time>
      </trkpt>
      <trkpt lat="49.51471" lon="3.8189">
        <ele>209.09</ele>
        <time>2019-06-17T12:51:43.000Z</time>
      </trkpt>
      <trkpt lat="49.51467" lon="3.81913">
        <ele>209.03</ele>
        <time>2019-06-17T12:51:53.000Z</time>
      </trkpt>
      <trkpt lat="49.5146" lon="3.81927">
        <ele>209.28</ele>
        <time>2019-06-17T12:52:03.000Z</time>
      </trkpt>
      <trkpt lat="49.51452" lon="3.8194">
        <ele>208.87</ele>
        <time>2019-06-17T12:52:13.000Z</time>
      </trkpt>
      <trkpt lat="49.51452" lon="3.81957">
        <ele>207.91</ele>
        <time>2019-06-17T12:52:23.000Z</time>
      </trkpt>
      <trkpt lat="49.51455" lon="3.8198">
        <ele>207.2</ele>
        <time>2019-06-17T12:52:33.000Z</time>
      </trkpt>
      <trkpt lat="49.51456" lon="3.81999">
        <ele>206.86</ele>
        <time>2019-06-17T12:52:43.000Z</time>
      </trkpt>
      <trkpt lat="49.51451" lon="3.82009">
        <ele>206.26</ele>
        <time>2019-06-17T12:52:53.000Z</time>
      </trkpt>
      <trkpt lat="49.5145" lon="3.82017">
        <ele>205.51</ele>
        <time>2019-06-17T12:53:03.000Z</time>
      </trkpt>
      <trkpt lat="49.51452" lon="3.8203">
        <ele>203.89</ele>
        <time>2019-06-17T12:53:13.000Z</time>
      </trkpt>
      <trkpt lat="49.51456" lon="3.82052">
        <ele>202.6</ele>
        <time>2019-06-17T12:53:23.000Z</time>
      </trkpt>
      <trkpt lat="49.51456" lon="3.82073">
        <ele>201.49</ele>
        <time>2019-06-17T12:53:33.000Z</time>
      </trkpt>
      <trkpt lat="49.51454" lon="3.82098">
        <ele>200.8</ele>
        <time>2019-06-17T12:53:43.000Z</time>
      </trkpt>
      <trkpt lat="49.51453" lon="3.82123">
        <ele>200.02</ele>
        <time>2019-06-17T12:53:53.000Z</time>
      </trkpt>
      <trkpt lat="49.51453" lon="3.82141">
        <ele>199.31</ele>
        <time>2019-06-17T12:54:03.000Z</time>
      </trkpt>
      <trkpt lat="49.51452" lon="3.82157">
        <ele>199.07</ele>
        <time>2019-06-17T12:54:13.000Z</time>
      </trkpt>
      <trkpt lat="49.5145" lon="3.82176">
        <ele>199.22</ele>
        <time>2019-06-17T12:54:23.000Z</time>
      </trkpt>
      <trkpt lat="49.51447" lon="3.82196">
        <ele>200.09</ele>
        <time>2019-06-17T12:54:33.000Z</time>
      </trkpt>
      <trkpt lat="49.51445" lon="3.82213">
        <ele>200.72</ele>
        <time>2019-06-17T12:54:43.000Z</time>
      </trkpt>
      <trkpt lat="49.51443" lon="3.82231">
        <ele>201.14</ele>
        <time>2019-06-17T12:54:53.000Z</time>
      </trkpt>
      <trkpt lat="49.51441" lon="3.82246">
        <ele>200.66</ele>
        <time>2019-06-17T12:55:03.000Z</time>
      </trkpt>
      <trkpt lat="49.51439" lon="3.8226">
        <ele>199.42</ele>
        <time>2019-06-17T12:55:13.000Z</time>
      </trkpt>
      <trkpt lat="49.51438" lon="3.82276">
        <ele>198.29</ele>
        <time>2019-06-17T12:55:23.000Z</time>
      </trkpt>
      <trkpt lat="49.51436" lon="3.82297">
        <ele>197.48</ele>
        <time>2019-06-17T12:55:33.000Z</time>
      </trkpt>
      <trkpt lat="49.51434" lon="3.82316">
        <ele>196.87</ele>
        <time>2019-06-17T12:55:43.000Z</time>
      </trkpt>
      <trkpt lat="49.51437" lon="3.82335">
        <ele>196.35</ele>
        <time>2019-06-17T12:55:53.000Z</time>
      </trkpt>
      <trkpt lat="49.51436" lon="3.82357">
        <ele>196.42</ele>
        <time>2019-06-17T12:56:03.000Z</time>
      </trkpt>
      <trkpt lat="49.51435" lon="3.82377">
        <ele>196.32</ele>
        <time>2019-06-17T12:56:13.000Z</time>
      </trkpt>
      <trkpt lat="49.51433" lon="3.82392">
        <ele>195.4</ele>
        <time>2019-06-17T12:56:23.000Z</time>
      </trkpt>
      <trkpt lat="49.51432" lon="3.8241">
        <ele>194.52</ele>
        <time>2019-06-17T12:56:33.000Z</time>
      </trkpt>
      <trkpt lat="49.51431" lon="3.82429">
        <ele>194.33</ele>
        <time>2019-06-17T12:56:43.000Z</time>
      </trkpt>
      <trkpt lat="49.5143" lon="3.82446">
        <ele>194.1</ele>
        <time>2019-06-17T12:56:53.000Z</time>
      </trkpt>
      <trkpt lat="49.51427" lon="3.82464">
        <ele>194.45</ele>
        <time>2019-06-17T12:57:03.000Z</time>
      </trkpt>
      <trkpt lat="49.51423" lon="3.82483">
        <ele>194.95</ele>
        <time>2019-06-17T12:57:13.000Z</time>
      </trkpt>
      <trkpt lat="49.51418" lon="3.82502">
        <ele>195.25</ele>
        <time>2019-06-17T12:57:23.000Z</time>
      </trkpt>
      <trkpt lat="49.51414" lon="3.82519">
        <ele>195.53</ele>
        <time>2019-06-17T12:57:33.000Z</time>
      </trkpt>
      <trkpt lat="49.51413" lon="3.82538">
        <ele>196.31</ele>
        <time>2019-06-17T12:57:43.000Z</time>
      </trkpt>
      <trkpt lat="49.51409" lon="3.82556">
        <ele>196.93</ele>
        <time>2019-06-17T12:57:53.000Z</time>
      </trkpt>
      <trkpt lat="49.51409" lon="3.82567">
        <ele>197.39</ele>
        <time>2019-06-17T12:58:03.000Z</time>
      </trkpt>
      <trkpt lat="49.51406" lon="3.8258">
        <ele>198.22</ele>
        <time>2019-06-17T12:58:13.000Z</time>
      </trkpt>
      <trkpt lat="49.51402" lon="3.82597">
        <ele>199.45</ele>
        <time>2019-06-17T12:58:23.000Z</time>
      </trkpt>
      <trkpt lat="49.51397" lon="3.8262">
        <ele>200.11</ele>
        <time>2019-06-17T12:58:33.000Z</time>
      </trkpt>
      <trkpt lat="49.51394" lon="3.82642">
        <ele>200.15</ele>
        <time>2019-06-17T12:58:43.000Z</time>
      </trkpt>
      <trkpt lat="49.51393" lon="3.82665">
        <ele>200.41</ele>
        <time>2019-06-17T12:58:53.000Z</time>
      </trkpt>
      <trkpt lat="49.51391" lon="3.82684">
        <ele>200.83</ele>
        <time>2019-06-17T12:59:03.000Z</time>
      </trkpt>
      <trkpt lat="49.5139" lon="3.82702">
        <ele>201.01</ele>
        <time>2019-06-17T12:59:13.000Z</time>
      </trkpt>
      <trkpt lat="49.5139" lon="3.82714">
        <ele>201.12</ele>
        <time>2019-06-17T12:59:23.000Z</time>
      </trkpt>
      <trkpt lat="49.51387" lon="3.8273">
        <ele>200.29</ele>
        <time>2019-06-17T12:59:33.000Z</time>
      </trkpt>
      <trkpt lat="49.51385" lon="3.82749">
        <ele>198.54</ele>
        <time>2019-06-17T12:59:43.000Z</time>
      </trkpt>
      <trkpt lat="49.51382" lon="3.82764">
        <ele>196.28</ele>
        <time>2019-06-17T12:59:53.000Z</time>
      </trkpt>
      <trkpt lat="49.51378" lon="3.82777">
        <ele>194.7</ele>
        <time>2019-06-17T13:00:03.000Z</time>
      </trkpt>
      <trkpt lat="49.51374" lon="3.82791">
        <ele>193.36</ele>
        <time>2019-06-17T13:00:13.000Z</time>
      </trkpt>
      <trkpt lat="49.51369" lon="3.82804">
        <ele>191.58</ele>
        <time>2019-06-17T13:00:23.000Z</time>
      </trkpt>
      <trkpt lat="49.51369" lon="3.82808">
        <ele>190.98</ele>
        <time>2019-06-17T13:00:33.000Z</time>
      </trkpt>
      <trkpt lat="49.51368" lon="3.82816">
        <ele>196.33</ele>
        <time>2019-06-17T13:03:03.000Z</time>
      </trkpt>
      <trkpt lat="49.51363" lon="3.82821">
        <ele>197.04</ele>
        <time>2019-06-17T13:03:13.000Z</time>
      </trkpt>
      <trkpt lat="49.51364" lon="3.82822">
        <ele>197.17</ele>
        <time>2019-06-17T13:03:23.000Z</time>
      </trkpt>
      <trkpt lat="49.51365" lon="3.82821">
        <ele>196.92</ele>
        <time>2019-06-17T13:03:33.000Z</time>
      </trkpt>
      <trkpt lat="49.51363" lon="3.82824">
        <ele>150.68</ele>
        <time>2019-06-17T13:03:44.000Z</time>
      </trkpt>
      <trkpt lat="49.51362" lon="3.82823">
        <ele>195.02</ele>
        <time>2019-06-17T13:03:54.000Z</time>
      </trkpt>
      <trkpt lat="49.51363" lon="3.82826">
        <ele>196.49</ele>
        <time>2019-06-17T13:04:04.000Z</time>
      </trkpt>
      <trkpt lat="49.51364" lon="3.82827">
        <ele>199.97</ele>
        <time>2019-06-17T13:05:29.000Z</time>
      </trkpt>
      <trkpt lat="49.51366" lon="3.8283">
        <ele>200.12</ele>
        <time>2019-06-17T13:05:39.000Z</time>
      </trkpt>
      <trkpt lat="49.51366" lon="3.82831">
        <ele>199.69</ele>
        <time>2019-06-17T13:05:58.000Z</time>
      </trkpt>
      <trkpt lat="49.5136" lon="3.82831">
        <ele>200.31</ele>
        <time>2019-06-17T13:06:08.000Z</time>
      </trkpt>
      <trkpt lat="49.5135" lon="3.82824">
        <ele>200.21</ele>
        <time>2019-06-17T13:06:18.000Z</time>
      </trkpt>
      <trkpt lat="49.5134" lon="3.82827">
        <ele>200.29</ele>
        <time>2019-06-17T13:06:28.000Z</time>
      </trkpt>
      <trkpt lat="49.51331" lon="3.82825">
        <ele>200.55</ele>
        <time>2019-06-17T13:06:38.000Z</time>
      </trkpt>
      <trkpt lat="49.51322" lon="3.82825">
        <ele>200.29</ele>
        <time>2019-06-17T13:06:48.000Z</time>
      </trkpt>
      <trkpt lat="49.51313" lon="3.82824">
        <ele>199.5</ele>
        <time>2019-06-17T13:06:58.000Z</time>
      </trkpt>
      <trkpt lat="49.51301" lon="3.82824">
        <ele>198.17</ele>
        <time>2019-06-17T13:07:08.000Z</time>
      </trkpt>
      <trkpt lat="49.51285" lon="3.8282">
        <ele>197.26</ele>
        <time>2019-06-17T13:07:18.000Z</time>
      </trkpt>
      <trkpt lat="49.51272" lon="3.82821">
        <ele>197.22</ele>
        <time>2019-06-17T13:07:28.000Z</time>
      </trkpt>
      <trkpt lat="49.51253" lon="3.82819">
        <ele>197.25</ele>
        <time>2019-06-17T13:07:38.000Z</time>
      </trkpt>
      <trkpt lat="49.51239" lon="3.82824">
        <ele>197.5</ele>
        <time>2019-06-17T13:07:48.000Z</time>
      </trkpt>
      <trkpt lat="49.51231" lon="3.82829">
        <ele>197.65</ele>
        <time>2019-06-17T13:07:58.000Z</time>
      </trkpt>
      <trkpt lat="49.5122" lon="3.82834">
        <ele>196.35</ele>
        <time>2019-06-17T13:08:08.000Z</time>
      </trkpt>
      <trkpt lat="49.51212" lon="3.8284">
        <ele>195.36</ele>
        <time>2019-06-17T13:08:18.000Z</time>
      </trkpt>
      <trkpt lat="49.51199" lon="3.82841">
        <ele>194.97</ele>
        <time>2019-06-17T13:08:28.000Z</time>
      </trkpt>
      <trkpt lat="49.51191" lon="3.82834">
        <ele>194.88</ele>
        <time>2019-06-17T13:08:38.000Z</time>
      </trkpt>
      <trkpt lat="49.51178" lon="3.82834">
        <ele>194.81</ele>
        <time>2019-06-17T13:08:48.000Z</time>
      </trkpt>
      <trkpt lat="49.51174" lon="3.82838">
        <ele>195.02</ele>
        <time>2019-06-17T13:08:58.000Z</time>
      </trkpt>
      <trkpt lat="49.51174" lon="3.82835">
        <ele>196.97</ele>
        <time>2019-06-17T13:09:22.000Z</time>
      </trkpt>
      <trkpt lat="49.51168" lon="3.82831">
        <ele>198.84</ele>
        <time>2019-06-17T13:09:32.000Z</time>
      </trkpt>
      <trkpt lat="49.51163" lon="3.82831">
        <ele>200.43</ele>
        <time>2019-06-17T13:09:42.000Z</time>
      </trkpt>
      <trkpt lat="49.51155" lon="3.82832">
        <ele>201.68</ele>
        <time>2019-06-17T13:09:52.000Z</time>
      </trkpt>
      <trkpt lat="49.51145" lon="3.82835">
        <ele>202.47</ele>
        <time>2019-06-17T13:10:02.000Z</time>
      </trkpt>
      <trkpt lat="49.51136" lon="3.82839">
        <ele>203.04</ele>
        <time>2019-06-17T13:10:12.000Z</time>
      </trkpt>
      <trkpt lat="49.51127" lon="3.8284">
        <ele>203.82</ele>
        <time>2019-06-17T13:10:22.000Z</time>
      </trkpt>
      <trkpt lat="49.51117" lon="3.82839">
        <ele>204.39</ele>
        <time>2019-06-17T13:10:32.000Z</time>
      </trkpt>
      <trkpt lat="49.51104" lon="3.82841">
        <ele>205.08</ele>
        <time>2019-06-17T13:10:42.000Z</time>
      </trkpt>
      <trkpt lat="49.51094" lon="3.82841">
        <ele>205.87</ele>
        <time>2019-06-17T13:10:52.000Z</time>
      </trkpt>
      <trkpt lat="49.51083" lon="3.8284">
        <ele>206.53</ele>
        <time>2019-06-17T13:11:02.000Z</time>
      </trkpt>
      <trkpt lat="49.51073" lon="3.82839">
        <ele>206.28</ele>
        <time>2019-06-17T13:11:12.000Z</time>
      </trkpt>
      <trkpt lat="49.5106" lon="3.82836">
        <ele>205.98</ele>
        <time>2019-06-17T13:11:22.000Z</time>
      </trkpt>
      <trkpt lat="49.51049" lon="3.82833">
        <ele>205.76</ele>
        <time>2019-06-17T13:11:32.000Z</time>
      </trkpt>
      <trkpt lat="49.5104" lon="3.82832">
        <ele>205.87</ele>
        <time>2019-06-17T13:11:42.000Z</time>
      </trkpt>
      <trkpt lat="49.51026" lon="3.82832">
        <ele>205.8</ele>
        <time>2019-06-17T13:11:52.000Z</time>
      </trkpt>
      <trkpt lat="49.5101" lon="3.82829">
        <ele>205.91</ele>
        <time>2019-06-17T13:12:02.000Z</time>
      </trkpt>
      <trkpt lat="49.50998" lon="3.82828">
        <ele>206.34</ele>
        <time>2019-06-17T13:12:12.000Z</time>
      </trkpt>
      <trkpt lat="49.50987" lon="3.82831">
        <ele>207.02</ele>
        <time>2019-06-17T13:12:22.000Z</time>
      </trkpt>
      <trkpt lat="49.50976" lon="3.82834">
        <ele>207.68</ele>
        <time>2019-06-17T13:12:32.000Z</time>
      </trkpt>
      <trkpt lat="49.50964" lon="3.82837">
        <ele>208.06</ele>
        <time>2019-06-17T13:12:42.000Z</time>
      </trkpt>
      <trkpt lat="49.50951" lon="3.82841">
        <ele>208.02</ele>
        <time>2019-06-17T13:12:52.000Z</time>
      </trkpt>
      <trkpt lat="49.5094" lon="3.82846">
        <ele>208.61</ele>
        <time>2019-06-17T13:13:02.000Z</time>
      </trkpt>
      <trkpt lat="49.5093" lon="3.8285">
        <ele>209.23</ele>
        <time>2019-06-17T13:13:12.000Z</time>
      </trkpt>
      <trkpt lat="49.5092" lon="3.82851">
        <ele>209.27</ele>
        <time>2019-06-17T13:13:22.000Z</time>
      </trkpt>
      <trkpt lat="49.5091" lon="3.82852">
        <ele>209.02</ele>
        <time>2019-06-17T13:13:32.000Z</time>
      </trkpt>
      <trkpt lat="49.50901" lon="3.82856">
        <ele>208.8</ele>
        <time>2019-06-17T13:13:42.000Z</time>
      </trkpt>
      <trkpt lat="49.50891" lon="3.8286">
        <ele>208.53</ele>
        <time>2019-06-17T13:13:52.000Z</time>
      </trkpt>
      <trkpt lat="49.50879" lon="3.82863">
        <ele>207.92</ele>
        <time>2019-06-17T13:14:02.000Z</time>
      </trkpt>
      <trkpt lat="49.50866" lon="3.82864">
        <ele>207.13</ele>
        <time>2019-06-17T13:14:12.000Z</time>
      </trkpt>
      <trkpt lat="49.50854" lon="3.82865">
        <ele>206.26</ele>
        <time>2019-06-17T13:14:22.000Z</time>
      </trkpt>
      <trkpt lat="49.50843" lon="3.82868">
        <ele>205.57</ele>
        <time>2019-06-17T13:14:32.000Z</time>
      </trkpt>
      <trkpt lat="49.50832" lon="3.82871">
        <ele>204.7</ele>
        <time>2019-06-17T13:14:42.000Z</time>
      </trkpt>
      <trkpt lat="49.5082" lon="3.82877">
        <ele>204.13</ele>
        <time>2019-06-17T13:14:52.000Z</time>
      </trkpt>
      <trkpt lat="49.50807" lon="3.82875">
        <ele>204.5</ele>
        <time>2019-06-17T13:15:02.000Z</time>
      </trkpt>
      <trkpt lat="49.50794" lon="3.82872">
        <ele>205.42</ele>
        <time>2019-06-17T13:15:12.000Z</time>
      </trkpt>
      <trkpt lat="49.50781" lon="3.82871">
        <ele>206.3</ele>
        <time>2019-06-17T13:15:22.000Z</time>
      </trkpt>
      <trkpt lat="49.50769" lon="3.82872">
        <ele>207.43</ele>
        <time>2019-06-17T13:15:32.000Z</time>
      </trkpt>
      <trkpt lat="49.50755" lon="3.82873">
        <ele>208.56</ele>
        <time>2019-06-17T13:15:42.000Z</time>
      </trkpt>
      <trkpt lat="49.50743" lon="3.82874">
        <ele>209.33</ele>
        <time>2019-06-17T13:15:52.000Z</time>
      </trkpt>
      <trkpt lat="49.50732" lon="3.82875">
        <ele>209.87</ele>
        <time>2019-06-17T13:16:02.000Z</time>
      </trkpt>
      <trkpt lat="49.50719" lon="3.82876">
        <ele>210.45</ele>
        <time>2019-06-17T13:16:12.000Z</time>
      </trkpt>
      <trkpt lat="49.50709" lon="3.82879">
        <ele>210.82</ele>
        <time>2019-06-17T13:16:22.000Z</time>
      </trkpt>
      <trkpt lat="49.50699" lon="3.82883">
        <ele>211.1</ele>
        <time>2019-06-17T13:16:32.000Z</time>
      </trkpt>
      <trkpt lat="49.50688" lon="3.82883">
        <ele>211.37</ele>
        <time>2019-06-17T13:16:42.000Z</time>
      </trkpt>
      <trkpt lat="49.50674" lon="3.82883">
        <ele>211.47</ele>
        <time>2019-06-17T13:16:52.000Z</time>
      </trkpt>
      <trkpt lat="49.50661" lon="3.82882">
        <ele>211.44</ele>
        <time>2019-06-17T13:17:02.000Z</time>
      </trkpt>
      <trkpt lat="49.5065" lon="3.82883">
        <ele>211.39</ele>
        <time>2019-06-17T13:17:12.000Z</time>
      </trkpt>
      <trkpt lat="49.5064" lon="3.82884">
        <ele>211.4</ele>
        <time>2019-06-17T13:17:22.000Z</time>
      </trkpt>
      <trkpt lat="49.50634" lon="3.82876">
        <ele>211.59</ele>
        <time>2019-06-17T13:17:32.000Z</time>
      </trkpt>
      <trkpt lat="49.50632" lon="3.8287">
        <ele>211.71</ele>
        <time>2019-06-17T13:17:42.000Z</time>
      </trkpt>
      <trkpt lat="49.50632" lon="3.82868">
        <ele>211.48</ele>
        <time>2019-06-17T13:17:54.000Z</time>
      </trkpt>
      <trkpt lat="49.50627" lon="3.82863">
        <ele>211.3</ele>
        <time>2019-06-17T13:18:04.000Z</time>
      </trkpt>
      <trkpt lat="49.50622" lon="3.82869">
        <ele>211.37</ele>
        <time>2019-06-17T13:18:14.000Z</time>
      </trkpt>
      <trkpt lat="49.50618" lon="3.82875">
        <ele>211.16</ele>
        <time>2019-06-17T13:18:24.000Z</time>
      </trkpt>
      <trkpt lat="49.50614" lon="3.82876">
        <ele>210.95</ele>
        <time>2019-06-17T13:18:34.000Z</time>
      </trkpt>
      <trkpt lat="49.5061" lon="3.82874">
        <ele>211.36</ele>
        <time>2019-06-17T13:18:44.000Z</time>
      </trkpt>
      <trkpt lat="49.50608" lon="3.82871">
        <ele>211.97</ele>
        <time>2019-06-17T13:18:54.000Z</time>
      </trkpt>
      <trkpt lat="49.50608" lon="3.82867">
        <ele>212.49</ele>
        <time>2019-06-17T13:19:04.000Z</time>
      </trkpt>
      <trkpt lat="49.5061" lon="3.82872">
        <ele>212.78</ele>
        <time>2019-06-17T13:19:14.000Z</time>
      </trkpt>
      <trkpt lat="49.50611" lon="3.82871">
        <ele>213.63</ele>
        <time>2019-06-17T13:19:37.000Z</time>
      </trkpt>
      <trkpt lat="49.50609" lon="3.82872">
        <ele>214.29</ele>
        <time>2019-06-17T13:19:47.000Z</time>
      </trkpt>
      <trkpt lat="49.50609" lon="3.82869">
        <ele>215.18</ele>
        <time>2019-06-17T13:20:04.000Z</time>
      </trkpt>
      <trkpt lat="49.50609" lon="3.8286">
        <ele>203.39</ele>
        <time>2019-06-17T13:20:14.000Z</time>
      </trkpt>
      <trkpt lat="49.50604" lon="3.8286">
        <ele>215.72</ele>
        <time>2019-06-17T13:20:24.000Z</time>
      </trkpt>
      <trkpt lat="49.50605" lon="3.82858">
        <ele>215.61</ele>
        <time>2019-06-17T13:20:40.000Z</time>
      </trkpt>
      <trkpt lat="49.50607" lon="3.82856">
        <ele>215.61</ele>
        <time>2019-06-17T13:20:50.000Z</time>
      </trkpt>
      <trkpt lat="49.50606" lon="3.82855">
        <ele>215.96</ele>
        <time>2019-06-17T13:21:01.000Z</time>
      </trkpt>
      <trkpt lat="49.50605" lon="3.82855">
        <ele>216.14</ele>
        <time>2019-06-17T13:21:11.000Z</time>
      </trkpt>
      <trkpt lat="49.50604" lon="3.82853">
        <ele>216.01</ele>
        <time>2019-06-17T13:21:33.000Z</time>
      </trkpt>
      <trkpt lat="49.50605" lon="3.82849">
        <ele>214.95</ele>
        <time>2019-06-17T13:22:19.000Z</time>
      </trkpt>
      <trkpt lat="49.50604" lon="3.8284">
        <ele>213.99</ele>
        <time>2019-06-17T13:22:29.000Z</time>
      </trkpt>
      <trkpt lat="49.50603" lon="3.82841">
        <ele>206.25</ele>
        <time>2019-06-17T13:23:13.000Z</time>
      </trkpt>
      <trkpt lat="49.50598" lon="3.82837">
        <ele>204.99</ele>
        <time>2019-06-17T13:23:23.000Z</time>
      </trkpt>
      <trkpt lat="49.50599" lon="3.82839">
        <ele>204.14</ele>
        <time>2019-06-17T13:23:33.000Z</time>
      </trkpt>
      <trkpt lat="49.50599" lon="3.82841">
        <ele>203.5</ele>
        <time>2019-06-17T13:23:55.000Z</time>
      </trkpt>
      <trkpt lat="49.50598" lon="3.8285">
        <ele>204.28</ele>
        <time>2019-06-17T13:24:05.000Z</time>
      </trkpt>
      <trkpt lat="49.506" lon="3.82849">
        <ele>204.62</ele>
        <time>2019-06-17T13:24:15.000Z</time>
      </trkpt>
      <trkpt lat="49.50601" lon="3.82849">
        <ele>205.23</ele>
        <time>2019-06-17T13:24:32.000Z</time>
      </trkpt>
      <trkpt lat="49.506" lon="3.8284">
        <ele>206.34</ele>
        <time>2019-06-17T13:24:42.000Z</time>
      </trkpt>
      <trkpt lat="49.50599" lon="3.82838">
        <ele>207</ele>
        <time>2019-06-17T13:24:52.000Z</time>
      </trkpt>
      <trkpt lat="49.50599" lon="3.82836">
        <ele>207.96</ele>
        <time>2019-06-17T13:25:02.000Z</time>
      </trkpt>
      <trkpt lat="49.50598" lon="3.82837">
        <ele>214.55</ele>
        <time>2019-06-17T13:26:04.000Z</time>
      </trkpt>
      <trkpt lat="49.50598" lon="3.82845">
        <ele>215.44</ele>
        <time>2019-06-17T13:26:14.000Z</time>
      </trkpt>
      <trkpt lat="49.506" lon="3.82847">
        <ele>215.27</ele>
        <time>2019-06-17T13:26:24.000Z</time>
      </trkpt>
      <trkpt lat="49.50598" lon="3.82847">
        <ele>213.25</ele>
        <time>2019-06-17T13:26:35.999Z</time>
      </trkpt>
      <trkpt lat="49.506" lon="3.82847">
        <ele>212.69</ele>
        <time>2019-06-17T13:26:45.999Z</time>
      </trkpt>
      <trkpt lat="49.50605" lon="3.82849">
        <ele>211.94</ele>
        <time>2019-06-17T13:26:55.999Z</time>
      </trkpt>
      <trkpt lat="49.50606" lon="3.82849">
        <ele>215.63</ele>
        <time>2019-06-17T13:28:29.999Z</time>
      </trkpt>
      <trkpt lat="49.50613" lon="3.82853">
        <ele>215.65</ele>
        <time>2019-06-17T13:28:39.999Z</time>
      </trkpt>
      <trkpt lat="49.50611" lon="3.82849">
        <ele>215.63</ele>
        <time>2019-06-17T13:28:49.999Z</time>
      </trkpt>
      <trkpt lat="49.5061" lon="3.82843">
        <ele>203.23</ele>
        <time>2019-06-17T13:34:55.999Z</time>
      </trkpt>
      <trkpt lat="49.50607" lon="3.82833">
        <ele>204.14</ele>
        <time>2019-06-17T13:35:05.999Z</time>
      </trkpt>
      <trkpt lat="49.50605" lon="3.82829">
        <ele>205.4</ele>
        <time>2019-06-17T13:35:15.999Z</time>
      </trkpt>
      <trkpt lat="49.50603" lon="3.82823">
        <ele>205.91</ele>
        <time>2019-06-17T13:35:25.999Z</time>
      </trkpt>
      <trkpt lat="49.50601" lon="3.82814">
        <ele>206.06</ele>
        <time>2019-06-17T13:35:35.999Z</time>
      </trkpt>
      <trkpt lat="49.50597" lon="3.82805">
        <ele>205.9</ele>
        <time>2019-06-17T13:35:45.999Z</time>
      </trkpt>
      <trkpt lat="49.506" lon="3.82801">
        <ele>205.62</ele>
        <time>2019-06-17T13:35:55.999Z</time>
      </trkpt>
      <trkpt lat="49.50603" lon="3.82793">
        <ele>205.44</ele>
        <time>2019-06-17T13:36:05.999Z</time>
      </trkpt>
      <trkpt lat="49.50601" lon="3.82773">
        <ele>205.62</ele>
        <time>2019-06-17T13:36:15.999Z</time>
      </trkpt>
      <trkpt lat="49.506" lon="3.82753">
        <ele>205.32</ele>
        <time>2019-06-17T13:36:25.999Z</time>
      </trkpt>
      <trkpt lat="49.50601" lon="3.8274">
        <ele>205.34</ele>
        <time>2019-06-17T13:36:35.999Z</time>
      </trkpt>
      <trkpt lat="49.506" lon="3.82728">
        <ele>205.96</ele>
        <time>2019-06-17T13:36:45.999Z</time>
      </trkpt>
      <trkpt lat="49.50603" lon="3.82712">
        <ele>206.15</ele>
        <time>2019-06-17T13:36:55.999Z</time>
      </trkpt>
      <trkpt lat="49.50605" lon="3.82699">
        <ele>206.09</ele>
        <time>2019-06-17T13:37:05.999Z</time>
      </trkpt>
      <trkpt lat="49.50605" lon="3.82683">
        <ele>205.94</ele>
        <time>2019-06-17T13:37:15.999Z</time>
      </trkpt>
      <trkpt lat="49.50605" lon="3.82667">
        <ele>205.74</ele>
        <time>2019-06-17T13:37:25.999Z</time>
      </trkpt>
      <trkpt lat="49.50607" lon="3.82653">
        <ele>205.06</ele>
        <time>2019-06-17T13:37:35.999Z</time>
      </trkpt>
      <trkpt lat="49.50608" lon="3.82638">
        <ele>205.25</ele>
        <time>2019-06-17T13:37:45.999Z</time>
      </trkpt>
      <trkpt lat="49.50611" lon="3.82627">
        <ele>205.06</ele>
        <time>2019-06-17T13:37:55.999Z</time>
      </trkpt>
      <trkpt lat="49.50612" lon="3.82617">
        <ele>205.01</ele>
        <time>2019-06-17T13:38:05.999Z</time>
      </trkpt>
      <trkpt lat="49.50614" lon="3.82606">
        <ele>205.31</ele>
        <time>2019-06-17T13:38:15.999Z</time>
      </trkpt>
      <trkpt lat="49.50614" lon="3.826">
        <ele>205.98</ele>
        <time>2019-06-17T13:38:25.999Z</time>
      </trkpt>
      <trkpt lat="49.50622" lon="3.82593">
        <ele>206.85</ele>
        <time>2019-06-17T13:38:35.999Z</time>
      </trkpt>
      <trkpt lat="49.50635" lon="3.82583">
        <ele>208.16</ele>
        <time>2019-06-17T13:38:45.999Z</time>
      </trkpt>
      <trkpt lat="49.50636" lon="3.82568">
        <ele>209.54</ele>
        <time>2019-06-17T13:38:55.999Z</time>
      </trkpt>
      <trkpt lat="49.50636" lon="3.82558">
        <ele>210.6</ele>
        <time>2019-06-17T13:39:05.999Z</time>
      </trkpt>
      <trkpt lat="49.50636" lon="3.82546">
        <ele>210.76</ele>
        <time>2019-06-17T13:39:15.999Z</time>
      </trkpt>
      <trkpt lat="49.50638" lon="3.82536">
        <ele>210.52</ele>
        <time>2019-06-17T13:39:25.999Z</time>
      </trkpt>
      <trkpt lat="49.50641" lon="3.82527">
        <ele>210.53</ele>
        <time>2019-06-17T13:39:35.999Z</time>
      </trkpt>
      <trkpt lat="49.50643" lon="3.82505">
        <ele>210.07</ele>
        <time>2019-06-17T13:39:45.999Z</time>
      </trkpt>
      <trkpt lat="49.50644" lon="3.82487">
        <ele>209.39</ele>
        <time>2019-06-17T13:39:55.999Z</time>
      </trkpt>
      <trkpt lat="49.50643" lon="3.82467">
        <ele>209.01</ele>
        <time>2019-06-17T13:40:05.999Z</time>
      </trkpt>
      <trkpt lat="49.50644" lon="3.82451">
        <ele>208.68</ele>
        <time>2019-06-17T13:40:15.999Z</time>
      </trkpt>
      <trkpt lat="49.50646" lon="3.82435">
        <ele>207.76</ele>
        <time>2019-06-17T13:40:25.999Z</time>
      </trkpt>
      <trkpt lat="49.50646" lon="3.8242">
        <ele>207.18</ele>
        <time>2019-06-17T13:40:35.999Z</time>
      </trkpt>
      <trkpt lat="49.50646" lon="3.82403">
        <ele>206.56</ele>
        <time>2019-06-17T13:40:45.999Z</time>
      </trkpt>
      <trkpt lat="49.50648" lon="3.82386">
        <ele>205.98</ele>
        <time>2019-06-17T13:40:55.999Z</time>
      </trkpt>
      <trkpt lat="49.5065" lon="3.82371">
        <ele>206</ele>
        <time>2019-06-17T13:41:05.999Z</time>
      </trkpt>
      <trkpt lat="49.50652" lon="3.8236">
        <ele>206.66</ele>
        <time>2019-06-17T13:41:15.999Z</time>
      </trkpt>
      <trkpt lat="49.50654" lon="3.8234">
        <ele>207.32</ele>
        <time>2019-06-17T13:41:25.999Z</time>
      </trkpt>
      <trkpt lat="49.50658" lon="3.82321">
        <ele>207.6</ele>
        <time>2019-06-17T13:41:35.999Z</time>
      </trkpt>
      <trkpt lat="49.50661" lon="3.82306">
        <ele>207.93</ele>
        <time>2019-06-17T13:41:45.999Z</time>
      </trkpt>
      <trkpt lat="49.50662" lon="3.82291">
        <ele>208.25</ele>
        <time>2019-06-17T13:41:55.999Z</time>
      </trkpt>
      <trkpt lat="49.50661" lon="3.82273">
        <ele>208.26</ele>
        <time>2019-06-17T13:42:05.999Z</time>
      </trkpt>
      <trkpt lat="49.5066" lon="3.82255">
        <ele>208.27</ele>
        <time>2019-06-17T13:42:15.999Z</time>
      </trkpt>
      <trkpt lat="49.5066" lon="3.82237">
        <ele>208.39</ele>
        <time>2019-06-17T13:42:25.999Z</time>
      </trkpt>
      <trkpt lat="49.50662" lon="3.82222">
        <ele>208.49</ele>
        <time>2019-06-17T13:42:35.999Z</time>
      </trkpt>
      <trkpt lat="49.50663" lon="3.82202">
        <ele>208.59</ele>
        <time>2019-06-17T13:42:45.999Z</time>
      </trkpt>
      <trkpt lat="49.50664" lon="3.82184">
        <ele>208.84</ele>
        <time>2019-06-17T13:42:55.999Z</time>
      </trkpt>
      <trkpt lat="49.50661" lon="3.82164">
        <ele>208.44</ele>
        <time>2019-06-17T13:43:05.999Z</time>
      </trkpt>
      <trkpt lat="49.5066" lon="3.82151">
        <ele>208.45</ele>
        <time>2019-06-17T13:43:15.999Z</time>
      </trkpt>
      <trkpt lat="49.50658" lon="3.82141">
        <ele>208.57</ele>
        <time>2019-06-17T13:43:25.999Z</time>
      </trkpt>
      <trkpt lat="49.50655" lon="3.82135">
        <ele>208.32</ele>
        <time>2019-06-17T13:43:35.999Z</time>
      </trkpt>
      <trkpt lat="49.50655" lon="3.82134">
        <ele>207.82</ele>
        <time>2019-06-17T13:43:51.999Z</time>
      </trkpt>
      <trkpt lat="49.50652" lon="3.82137">
        <ele>207.16</ele>
        <time>2019-06-17T13:44:01.999Z</time>
      </trkpt>
      <trkpt lat="49.5065" lon="3.82133">
        <ele>206.39</ele>
        <time>2019-06-17T13:44:11.999Z</time>
      </trkpt>
      <trkpt lat="49.50646" lon="3.82135">
        <ele>206.35</ele>
        <time>2019-06-17T13:44:21.999Z</time>
      </trkpt>
      <trkpt lat="49.50647" lon="3.82134">
        <ele>206.2</ele>
        <time>2019-06-17T13:44:33.999Z</time>
      </trkpt>
      <trkpt lat="49.50647" lon="3.82133">
        <ele>205.83</ele>
        <time>2019-06-17T13:44:43.999Z</time>
      </trkpt>
      <trkpt lat="49.50646" lon="3.82131">
        <ele>205.57</ele>
        <time>2019-06-17T13:44:53.999Z</time>
      </trkpt>
      <trkpt lat="49.50645" lon="3.8213">
        <ele>205.24</ele>
        <time>2019-06-17T13:45:03.999Z</time>
      </trkpt>
      <trkpt lat="49.50647" lon="3.82124">
        <ele>204.49</ele>
        <time>2019-06-17T13:45:13.999Z</time>
      </trkpt>
      <trkpt lat="49.50647" lon="3.82126">
        <ele>203.94</ele>
        <time>2019-06-17T13:45:24.999Z</time>
      </trkpt>
      <trkpt lat="49.50647" lon="3.82128">
        <ele>203.21</ele>
        <time>2019-06-17T13:45:34.999Z</time>
      </trkpt>
      <trkpt lat="49.50646" lon="3.82126">
        <ele>200.85</ele>
        <time>2019-06-17T13:45:58.999Z</time>
      </trkpt>
      <trkpt lat="49.50642" lon="3.82122">
        <ele>200.06</ele>
        <time>2019-06-17T13:46:08.999Z</time>
      </trkpt>
      <trkpt lat="49.50643" lon="3.82124">
        <ele>199.89</ele>
        <time>2019-06-17T13:46:18.999Z</time>
      </trkpt>
      <trkpt lat="49.50643" lon="3.82126">
        <ele>199.76</ele>
        <time>2019-06-17T13:46:28.999Z</time>
      </trkpt>
      <trkpt lat="49.50644" lon="3.82127">
        <ele>199.81</ele>
        <time>2019-06-17T13:47:17.999Z</time>
      </trkpt>
      <trkpt lat="49.5065" lon="3.82119">
        <ele>199.67</ele>
        <time>2019-06-17T13:47:27.999Z</time>
      </trkpt>
      <trkpt lat="49.50652" lon="3.82101">
        <ele>199.63</ele>
        <time>2019-06-17T13:47:37.999Z</time>
      </trkpt>
      <trkpt lat="49.50652" lon="3.82085">
        <ele>199.99</ele>
        <time>2019-06-17T13:47:47.999Z</time>
      </trkpt>
      <trkpt lat="49.50652" lon="3.82076">
        <ele>200.84</ele>
        <time>2019-06-17T13:47:57.999Z</time>
      </trkpt>
      <trkpt lat="49.50652" lon="3.82062">
        <ele>201.52</ele>
        <time>2019-06-17T13:48:07.999Z</time>
      </trkpt>
      <trkpt lat="49.50651" lon="3.82046">
        <ele>202.01</ele>
        <time>2019-06-17T13:48:17.999Z</time>
      </trkpt>
      <trkpt lat="49.50649" lon="3.82032">
        <ele>202.54</ele>
        <time>2019-06-17T13:48:27.999Z</time>
      </trkpt>
      <trkpt lat="49.50647" lon="3.82018">
        <ele>202.78</ele>
        <time>2019-06-17T13:48:37.999Z</time>
      </trkpt>
      <trkpt lat="49.50645" lon="3.82002">
        <ele>202.97</ele>
        <time>2019-06-17T13:48:47.999Z</time>
      </trkpt>
      <trkpt lat="49.50641" lon="3.81988">
        <ele>203.38</ele>
        <time>2019-06-17T13:48:57.999Z</time>
      </trkpt>
      <trkpt lat="49.50639" lon="3.81974">
        <ele>203.57</ele>
        <time>2019-06-17T13:49:07.999Z</time>
      </trkpt>
      <trkpt lat="49.50636" lon="3.81958">
        <ele>203.62</ele>
        <time>2019-06-17T13:49:17.999Z</time>
      </trkpt>
      <trkpt lat="49.5063" lon="3.81943">
        <ele>203.54</ele>
        <time>2019-06-17T13:49:27.999Z</time>
      </trkpt>
      <trkpt lat="49.50627" lon="3.81927">
        <ele>202.91</ele>
        <time>2019-06-17T13:49:37.999Z</time>
      </trkpt>
      <trkpt lat="49.50625" lon="3.8191">
        <ele>202.9</ele>
        <time>2019-06-17T13:49:47.999Z</time>
      </trkpt>
      <trkpt lat="49.50621" lon="3.81896">
        <ele>202.8</ele>
        <time>2019-06-17T13:49:57.999Z</time>
      </trkpt>
      <trkpt lat="49.50616" lon="3.81883">
        <ele>202.64</ele>
        <time>2019-06-17T13:50:07.999Z</time>
      </trkpt>
      <trkpt lat="49.50614" lon="3.81873">
        <ele>202.46</ele>
        <time>2019-06-17T13:50:17.999Z</time>
      </trkpt>
      <trkpt lat="49.50606" lon="3.81864">
        <ele>202.19</ele>
        <time>2019-06-17T13:50:27.999Z</time>
      </trkpt>
      <trkpt lat="49.50596" lon="3.81857">
        <ele>201.72</ele>
        <time>2019-06-17T13:50:37.999Z</time>
      </trkpt>
      <trkpt lat="49.50588" lon="3.81855">
        <ele>200.79</ele>
        <time>2019-06-17T13:50:47.999Z</time>
      </trkpt>
      <trkpt lat="49.50579" lon="3.81851">
        <ele>199.75</ele>
        <time>2019-06-17T13:50:57.999Z</time>
      </trkpt>
      <trkpt lat="49.50568" lon="3.81848">
        <ele>198.75</ele>
        <time>2019-06-17T13:51:07.999Z</time>
      </trkpt>
      <trkpt lat="49.50556" lon="3.81841">
        <ele>198.63</ele>
        <time>2019-06-17T13:51:17.999Z</time>
      </trkpt>
      <trkpt lat="49.50544" lon="3.81832">
        <ele>198.66</ele>
        <time>2019-06-17T13:51:27.999Z</time>
      </trkpt>
      <trkpt lat="49.50529" lon="3.81825">
        <ele>198.28</ele>
        <time>2019-06-17T13:51:37.999Z</time>
      </trkpt>
      <trkpt lat="49.50515" lon="3.81817">
        <ele>198.59</ele>
        <time>2019-06-17T13:51:47.999Z</time>
      </trkpt>
      <trkpt lat="49.50503" lon="3.8181">
        <ele>198.94</ele>
        <time>2019-06-17T13:51:57.999Z</time>
      </trkpt>
      <trkpt lat="49.50493" lon="3.81806">
        <ele>199.07</ele>
        <time>2019-06-17T13:52:07.999Z</time>
      </trkpt>
      <trkpt lat="49.50482" lon="3.81803">
        <ele>198.49</ele>
        <time>2019-06-17T13:52:17.999Z</time>
      </trkpt>
      <trkpt lat="49.50471" lon="3.818">
        <ele>197.81</ele>
        <time>2019-06-17T13:52:27.999Z</time>
      </trkpt>
      <trkpt lat="49.50461" lon="3.81797">
        <ele>197.5</ele>
        <time>2019-06-17T13:52:37.999Z</time>
      </trkpt>
      <trkpt lat="49.50449" lon="3.81792">
        <ele>197.24</ele>
        <time>2019-06-17T13:52:47.999Z</time>
      </trkpt>
      <trkpt lat="49.50436" lon="3.8179">
        <ele>195.61</ele>
        <time>2019-06-17T13:52:57.999Z</time>
      </trkpt>
      <trkpt lat="49.50426" lon="3.81788">
        <ele>193.8</ele>
        <time>2019-06-17T13:53:07.999Z</time>
      </trkpt>
      <trkpt lat="49.50416" lon="3.81786">
        <ele>192.07</ele>
        <time>2019-06-17T13:53:17.999Z</time>
      </trkpt>
      <trkpt lat="49.50401" lon="3.81781">
        <ele>191.05</ele>
        <time>2019-06-17T13:53:27.999Z</time>
      </trkpt>
      <trkpt lat="49.50388" lon="3.81777">
        <ele>190.2</ele>
        <time>2019-06-17T13:53:37.999Z</time>
      </trkpt>
      <trkpt lat="49.50376" lon="3.81776">
        <ele>189.71</ele>
        <time>2019-06-17T13:53:47.999Z</time>
      </trkpt>
      <trkpt lat="49.50363" lon="3.81773">
        <ele>189.52</ele>
        <time>2019-06-17T13:53:57.999Z</time>
      </trkpt>
      <trkpt lat="49.50351" lon="3.81771">
        <ele>189.14</ele>
        <time>2019-06-17T13:54:07.999Z</time>
      </trkpt>
      <trkpt lat="49.5034" lon="3.81772">
        <ele>188.63</ele>
        <time>2019-06-17T13:54:17.999Z</time>
      </trkpt>
      <trkpt lat="49.50331" lon="3.81773">
        <ele>188.2</ele>
        <time>2019-06-17T13:54:27.999Z</time>
      </trkpt>
      <trkpt lat="49.50323" lon="3.81773">
        <ele>187.55</ele>
        <time>2019-06-17T13:54:37.999Z</time>
      </trkpt>
      <trkpt lat="49.50311" lon="3.81771">
        <ele>187.05</ele>
        <time>2019-06-17T13:54:47.999Z</time>
      </trkpt>
      <trkpt lat="49.50298" lon="3.81764">
        <ele>186.43</ele>
        <time>2019-06-17T13:54:57.999Z</time>
      </trkpt>
      <trkpt lat="49.50284" lon="3.81752">
        <ele>185.19</ele>
        <time>2019-06-17T13:55:07.999Z</time>
      </trkpt>
      <trkpt lat="49.50272" lon="3.81748">
        <ele>184.05</ele>
        <time>2019-06-17T13:55:17.999Z</time>
      </trkpt>
      <trkpt lat="49.50261" lon="3.8175">
        <ele>183.05</ele>
        <time>2019-06-17T13:55:27.999Z</time>
      </trkpt>
      <trkpt lat="49.50248" lon="3.81752">
        <ele>182.21</ele>
        <time>2019-06-17T13:55:37.999Z</time>
      </trkpt>
      <trkpt lat="49.50241" lon="3.81752">
        <ele>181.46</ele>
        <time>2019-06-17T13:55:47.999Z</time>
      </trkpt>
      <trkpt lat="49.50241" lon="3.81753">
        <ele>180.81</ele>
        <time>2019-06-17T13:55:57.999Z</time>
      </trkpt>
      <trkpt lat="49.50239" lon="3.81754">
        <ele>180.4</ele>
        <time>2019-06-17T13:56:07.999Z</time>
      </trkpt>
      <trkpt lat="49.5023" lon="3.81758">
        <ele>180.35</ele>
        <time>2019-06-17T13:56:17.999Z</time>
      </trkpt>
      <trkpt lat="49.50218" lon="3.81764">
        <ele>179.83</ele>
        <time>2019-06-17T13:56:27.999Z</time>
      </trkpt>
      <trkpt lat="49.50207" lon="3.81772">
        <ele>179.07</ele>
        <time>2019-06-17T13:56:37.999Z</time>
      </trkpt>
      <trkpt lat="49.50196" lon="3.81778">
        <ele>177.59</ele>
        <time>2019-06-17T13:56:47.999Z</time>
      </trkpt>
      <trkpt lat="49.50184" lon="3.81785">
        <ele>176.02</ele>
        <time>2019-06-17T13:56:57.999Z</time>
      </trkpt>
      <trkpt lat="49.50175" lon="3.81788">
        <ele>173.83</ele>
        <time>2019-06-17T13:57:07.999Z</time>
      </trkpt>
      <trkpt lat="49.50164" lon="3.81791">
        <ele>172.09</ele>
        <time>2019-06-17T13:57:17.999Z</time>
      </trkpt>
      <trkpt lat="49.50153" lon="3.81791">
        <ele>170.6</ele>
        <time>2019-06-17T13:57:27.999Z</time>
      </trkpt>
      <trkpt lat="49.50141" lon="3.81789">
        <ele>169.21</ele>
        <time>2019-06-17T13:57:37.999Z</time>
      </trkpt>
      <trkpt lat="49.50131" lon="3.81784">
        <ele>167.82</ele>
        <time>2019-06-17T13:57:47.999Z</time>
      </trkpt>
      <trkpt lat="49.50125" lon="3.81784">
        <ele>166.87</ele>
        <time>2019-06-17T13:57:57.999Z</time>
      </trkpt>
      <trkpt lat="49.50124" lon="3.81784">
        <ele>165.7</ele>
        <time>2019-06-17T13:58:07.999Z</time>
      </trkpt>
      <trkpt lat="49.50123" lon="3.81783">
        <ele>164.34</ele>
        <time>2019-06-17T13:58:20.999Z</time>
      </trkpt>
      <trkpt lat="49.50122" lon="3.81785">
        <ele>163.18</ele>
        <time>2019-06-17T13:58:30.999Z</time>
      </trkpt>
      <trkpt lat="49.5012" lon="3.8179">
        <ele>161.94</ele>
        <time>2019-06-17T13:58:40.999Z</time>
      </trkpt>
      <trkpt lat="49.50119" lon="3.81791">
        <ele>161.12</ele>
        <time>2019-06-17T13:58:50.999Z</time>
      </trkpt>
      <trkpt lat="49.50121" lon="3.81791">
        <ele>160.72</ele>
        <time>2019-06-17T13:59:00.999Z</time>
      </trkpt>
      <trkpt lat="49.50121" lon="3.81785">
        <ele>160.24</ele>
        <time>2019-06-17T13:59:10.999Z</time>
      </trkpt>
      <trkpt lat="49.50122" lon="3.81787">
        <ele>160.65</ele>
        <time>2019-06-17T13:59:27.999Z</time>
      </trkpt>
      <trkpt lat="49.50121" lon="3.81786">
        <ele>161.45</ele>
        <time>2019-06-17T13:59:40.999Z</time>
      </trkpt>
      <trkpt lat="49.50113" lon="3.81777">
        <ele>161.01</ele>
        <time>2019-06-17T13:59:50.999Z</time>
      </trkpt>
      <trkpt lat="49.50102" lon="3.81767">
        <ele>160.08</ele>
        <time>2019-06-17T14:00:00.999Z</time>
      </trkpt>
      <trkpt lat="49.50088" lon="3.8175">
        <ele>158.78</ele>
        <time>2019-06-17T14:00:10.999Z</time>
      </trkpt>
      <trkpt lat="49.50079" lon="3.81749">
        <ele>157.22</ele>
        <time>2019-06-17T14:00:20.999Z</time>
      </trkpt>
      <trkpt lat="49.50069" lon="3.81747">
        <ele>155.96</ele>
        <time>2019-06-17T14:00:30.999Z</time>
      </trkpt>
      <trkpt lat="49.50058" lon="3.81742">
        <ele>155.27</ele>
        <time>2019-06-17T14:00:40.999Z</time>
      </trkpt>
      <trkpt lat="49.50049" lon="3.81736">
        <ele>154.52</ele>
        <time>2019-06-17T14:00:50.999Z</time>
      </trkpt>
      <trkpt lat="49.50041" lon="3.81728">
        <ele>153.71</ele>
        <time>2019-06-17T14:01:00.999Z</time>
      </trkpt>
      <trkpt lat="49.50034" lon="3.81721">
        <ele>153.24</ele>
        <time>2019-06-17T14:01:10.999Z</time>
      </trkpt>
      <trkpt lat="49.50023" lon="3.81713">
        <ele>152.95</ele>
        <time>2019-06-17T14:01:20.999Z</time>
      </trkpt>
      <trkpt lat="49.50013" lon="3.81705">
        <ele>152.82</ele>
        <time>2019-06-17T14:01:30.999Z</time>
      </trkpt>
      <trkpt lat="49.50003" lon="3.81696">
        <ele>152.56</ele>
        <time>2019-06-17T14:01:40.999Z</time>
      </trkpt>
      <trkpt lat="49.4999" lon="3.81686">
        <ele>153.04</ele>
        <time>2019-06-17T14:01:50.999Z</time>
      </trkpt>
      <trkpt lat="49.49974" lon="3.81681">
        <ele>152.67</ele>
        <time>2019-06-17T14:02:00.999Z</time>
      </trkpt>
      <trkpt lat="49.49964" lon="3.8168">
        <ele>151.75</ele>
        <time>2019-06-17T14:02:10.999Z</time>
      </trkpt>
      <trkpt lat="49.49959" lon="3.81676">
        <ele>150.03</ele>
        <time>2019-06-17T14:02:20.999Z</time>
      </trkpt>
      <trkpt lat="49.49948" lon="3.81674">
        <ele>148.83</ele>
        <time>2019-06-17T14:02:30.999Z</time>
      </trkpt>
      <trkpt lat="49.49936" lon="3.81678">
        <ele>147.37</ele>
        <time>2019-06-17T14:02:40.999Z</time>
      </trkpt>
      <trkpt lat="49.49923" lon="3.81687">
        <ele>146.61</ele>
        <time>2019-06-17T14:02:50.999Z</time>
      </trkpt>
      <trkpt lat="49.49912" lon="3.81693">
        <ele>145.57</ele>
        <time>2019-06-17T14:03:00.999Z</time>
      </trkpt>
      <trkpt lat="49.49902" lon="3.81697">
        <ele>143.82</ele>
        <time>2019-06-17T14:03:10.999Z</time>
      </trkpt>
      <trkpt lat="49.49893" lon="3.81701">
        <ele>141.93</ele>
        <time>2019-06-17T14:03:20.999Z</time>
      </trkpt>
      <trkpt lat="49.49886" lon="3.81705">
        <ele>139.83</ele>
        <time>2019-06-17T14:03:30.999Z</time>
      </trkpt>
      <trkpt lat="49.49877" lon="3.81709">
        <ele>137.8</ele>
        <time>2019-06-17T14:03:40.999Z</time>
      </trkpt>
      <trkpt lat="49.49864" lon="3.81711">
        <ele>135.95</ele>
        <time>2019-06-17T14:03:50.999Z</time>
      </trkpt>
      <trkpt lat="49.49851" lon="3.81711">
        <ele>134.35</ele>
        <time>2019-06-17T14:04:00.999Z</time>
      </trkpt>
      <trkpt lat="49.49837" lon="3.81708">
        <ele>132.63</ele>
        <time>2019-06-17T14:04:10.999Z</time>
      </trkpt>
      <trkpt lat="49.49827" lon="3.81708">
        <ele>130.82</ele>
        <time>2019-06-17T14:04:20.999Z</time>
      </trkpt>
      <trkpt lat="49.49817" lon="3.81712">
        <ele>129.36</ele>
        <time>2019-06-17T14:04:30.999Z</time>
      </trkpt>
      <trkpt lat="49.49806" lon="3.81714">
        <ele>127.87</ele>
        <time>2019-06-17T14:04:40.999Z</time>
      </trkpt>
      <trkpt lat="49.49796" lon="3.81713">
        <ele>126.51</ele>
        <time>2019-06-17T14:04:50.999Z</time>
      </trkpt>
      <trkpt lat="49.49799" lon="3.8171">
        <ele>125.61</ele>
        <time>2019-06-17T14:05:00.999Z</time>
      </trkpt>
      <trkpt lat="49.49805" lon="3.81703">
        <ele>124.96</ele>
        <time>2019-06-17T14:05:10.999Z</time>
      </trkpt>
      <trkpt lat="49.49816" lon="3.81701">
        <ele>124.07</ele>
        <time>2019-06-17T14:05:20.999Z</time>
      </trkpt>
      <trkpt lat="49.4982" lon="3.817">
        <ele>123.5</ele>
        <time>2019-06-17T14:05:30.999Z</time>
      </trkpt>
      <trkpt lat="49.49819" lon="3.81698">
        <ele>116.18</ele>
        <time>2019-06-17T14:06:19.999Z</time>
      </trkpt>
      <trkpt lat="49.49811" lon="3.81695">
        <ele>115.22</ele>
        <time>2019-06-17T14:06:29.999Z</time>
      </trkpt>
      <trkpt lat="49.49803" lon="3.81704">
        <ele>115.12</ele>
        <time>2019-06-17T14:06:39.999Z</time>
      </trkpt>
      <trkpt lat="49.49797" lon="3.81708">
        <ele>115.68</ele>
        <time>2019-06-17T14:06:49.999Z</time>
      </trkpt>
      <trkpt lat="49.49791" lon="3.81711">
        <ele>116.15</ele>
        <time>2019-06-17T14:06:59.999Z</time>
      </trkpt>
      <trkpt lat="49.49791" lon="3.81707">
        <ele>116.19</ele>
        <time>2019-06-17T14:07:09.999Z</time>
      </trkpt>
      <trkpt lat="49.49792" lon="3.81705">
        <ele>115.86</ele>
        <time>2019-06-17T14:07:19.999Z</time>
      </trkpt>
      <trkpt lat="49.49791" lon="3.81705">
        <ele>115.16</ele>
        <time>2019-06-17T14:08:49.999Z</time>
      </trkpt>
      <trkpt lat="49.4979" lon="3.81704">
        <ele>115.44</ele>
        <time>2019-06-17T14:08:59.999Z</time>
      </trkpt>
      <trkpt lat="49.49788" lon="3.81705">
        <ele>117.48</ele>
        <time>2019-06-17T14:09:51.999Z</time>
      </trkpt>
      <trkpt lat="49.49782" lon="3.81709">
        <ele>117.06</ele>
        <time>2019-06-17T14:10:01.999Z</time>
      </trkpt>
      <trkpt lat="49.49782" lon="3.81715">
        <ele>116.41</ele>
        <time>2019-06-17T14:10:11.999Z</time>
      </trkpt>
      <trkpt lat="49.49781" lon="3.81724">
        <ele>115.88</ele>
        <time>2019-06-17T14:10:21.999Z</time>
      </trkpt>
      <trkpt lat="49.49775" lon="3.81727">
        <ele>115.67</ele>
        <time>2019-06-17T14:10:31.999Z</time>
      </trkpt>
      <trkpt lat="49.49766" lon="3.81727">
        <ele>115.66</ele>
        <time>2019-06-17T14:10:41.999Z</time>
      </trkpt>
      <trkpt lat="49.49758" lon="3.81718">
        <ele>116.31</ele>
        <time>2019-06-17T14:10:51.999Z</time>
      </trkpt>
      <trkpt lat="49.49754" lon="3.81706">
        <ele>116.59</ele>
        <time>2019-06-17T14:11:01.999Z</time>
      </trkpt>
      <trkpt lat="49.49755" lon="3.81688">
        <ele>116.1</ele>
        <time>2019-06-17T14:11:11.999Z</time>
      </trkpt>
      <trkpt lat="49.49759" lon="3.81671">
        <ele>115.13</ele>
        <time>2019-06-17T14:11:21.999Z</time>
      </trkpt>
      <trkpt lat="49.49764" lon="3.81659">
        <ele>114.34</ele>
        <time>2019-06-17T14:11:31.999Z</time>
      </trkpt>
      <trkpt lat="49.49768" lon="3.81648">
        <ele>114.59</ele>
        <time>2019-06-17T14:11:41.999Z</time>
      </trkpt>
      <trkpt lat="49.49774" lon="3.81635">
        <ele>115.18</ele>
        <time>2019-06-17T14:11:51.999Z</time>
      </trkpt>
      <trkpt lat="49.49781" lon="3.8162">
        <ele>115.73</ele>
        <time>2019-06-17T14:12:01.999Z</time>
      </trkpt>
      <trkpt lat="49.49786" lon="3.81607">
        <ele>115.86</ele>
        <time>2019-06-17T14:12:11.999Z</time>
      </trkpt>
      <trkpt lat="49.49791" lon="3.81591">
        <ele>115.5</ele>
        <time>2019-06-17T14:12:21.999Z</time>
      </trkpt>
      <trkpt lat="49.49797" lon="3.81577">
        <ele>114.42</ele>
        <time>2019-06-17T14:12:31.999Z</time>
      </trkpt>
      <trkpt lat="49.49804" lon="3.81564">
        <ele>112.65</ele>
        <time>2019-06-17T14:12:41.999Z</time>
      </trkpt>
      <trkpt lat="49.49809" lon="3.8155">
        <ele>110.66</ele>
        <time>2019-06-17T14:12:51.999Z</time>
      </trkpt>
      <trkpt lat="49.49815" lon="3.81541">
        <ele>108.49</ele>
        <time>2019-06-17T14:13:01.999Z</time>
      </trkpt>
      <trkpt lat="49.49823" lon="3.81527">
        <ele>106.78</ele>
        <time>2019-06-17T14:13:11.999Z</time>
      </trkpt>
      <trkpt lat="49.49833" lon="3.81514">
        <ele>105.45</ele>
        <time>2019-06-17T14:13:21.999Z</time>
      </trkpt>
      <trkpt lat="49.49846" lon="3.81501">
        <ele>104.28</ele>
        <time>2019-06-17T14:13:31.999Z</time>
      </trkpt>
      <trkpt lat="49.49858" lon="3.81494">
        <ele>103.62</ele>
        <time>2019-06-17T14:13:41.999Z</time>
      </trkpt>
      <trkpt lat="49.4987" lon="3.81488">
        <ele>103.86</ele>
        <time>2019-06-17T14:13:51.999Z</time>
      </trkpt>
      <trkpt lat="49.4988" lon="3.81482">
        <ele>105</ele>
        <time>2019-06-17T14:14:01.999Z</time>
      </trkpt>
      <trkpt lat="49.49886" lon="3.81471">
        <ele>107.23</ele>
        <time>2019-06-17T14:14:11.999Z</time>
      </trkpt>
      <trkpt lat="49.49885" lon="3.81459">
        <ele>109.02</ele>
        <time>2019-06-17T14:14:21.999Z</time>
      </trkpt>
      <trkpt lat="49.49883" lon="3.81444">
        <ele>110.81</ele>
        <time>2019-06-17T14:14:31.999Z</time>
      </trkpt>
      <trkpt lat="49.4988" lon="3.81428">
        <ele>112.19</ele>
        <time>2019-06-17T14:14:41.999Z</time>
      </trkpt>
      <trkpt lat="49.49878" lon="3.81412">
        <ele>113.21</ele>
        <time>2019-06-17T14:14:51.999Z</time>
      </trkpt>
      <trkpt lat="49.49875" lon="3.81399">
        <ele>113.48</ele>
        <time>2019-06-17T14:15:01.999Z</time>
      </trkpt>
      <trkpt lat="49.49873" lon="3.81383">
        <ele>113.6</ele>
        <time>2019-06-17T14:15:11.999Z</time>
      </trkpt>
      <trkpt lat="49.49872" lon="3.81371">
        <ele>113.24</ele>
        <time>2019-06-17T14:15:21.999Z</time>
      </trkpt>
      <trkpt lat="49.4987" lon="3.81352">
        <ele>112.69</ele>
        <time>2019-06-17T14:15:31.999Z</time>
      </trkpt>
      <trkpt lat="49.49866" lon="3.81335">
        <ele>112.68</ele>
        <time>2019-06-17T14:15:41.999Z</time>
      </trkpt>
      <trkpt lat="49.49864" lon="3.81321">
        <ele>113.76</ele>
        <time>2019-06-17T14:15:51.999Z</time>
      </trkpt>
      <trkpt lat="49.49867" lon="3.81306">
        <ele>115.38</ele>
        <time>2019-06-17T14:16:01.999Z</time>
      </trkpt>
      <trkpt lat="49.49871" lon="3.8129">
        <ele>116.6</ele>
        <time>2019-06-17T14:16:11.999Z</time>
      </trkpt>
      <trkpt lat="49.49874" lon="3.81276">
        <ele>117.51</ele>
        <time>2019-06-17T14:16:21.999Z</time>
      </trkpt>
      <trkpt lat="49.49875" lon="3.81264">
        <ele>118.74</ele>
        <time>2019-06-17T14:16:31.999Z</time>
      </trkpt>
      <trkpt lat="49.49877" lon="3.81252">
        <ele>120.09</ele>
        <time>2019-06-17T14:16:41.999Z</time>
      </trkpt>
      <trkpt lat="49.49881" lon="3.81239">
        <ele>121.89</ele>
        <time>2019-06-17T14:16:51.999Z</time>
      </trkpt>
      <trkpt lat="49.49884" lon="3.81227">
        <ele>122.86</ele>
        <time>2019-06-17T14:17:01.999Z</time>
      </trkpt>
      <trkpt lat="49.49889" lon="3.81216">
        <ele>123.33</ele>
        <time>2019-06-17T14:17:11.999Z</time>
      </trkpt>
      <trkpt lat="49.49895" lon="3.81211">
        <ele>123.49</ele>
        <time>2019-06-17T14:17:21.999Z</time>
      </trkpt>
      <trkpt lat="49.49897" lon="3.81201">
        <ele>123.83</ele>
        <time>2019-06-17T14:17:31.999Z</time>
      </trkpt>
      <trkpt lat="49.499" lon="3.81191">
        <ele>123.77</ele>
        <time>2019-06-17T14:17:41.999Z</time>
      </trkpt>
      <trkpt lat="49.49903" lon="3.81185">
        <ele>123.63</ele>
        <time>2019-06-17T14:17:51.999Z</time>
      </trkpt>
      <trkpt lat="49.49907" lon="3.8118">
        <ele>123.96</ele>
        <time>2019-06-17T14:18:01.999Z</time>
      </trkpt>
      <trkpt lat="49.49914" lon="3.81175">
        <ele>123.89</ele>
        <time>2019-06-17T14:18:11.999Z</time>
      </trkpt>
      <trkpt lat="49.49924" lon="3.81169">
        <ele>124.05</ele>
        <time>2019-06-17T14:18:21.999Z</time>
      </trkpt>
      <trkpt lat="49.49932" lon="3.81161">
        <ele>124.24</ele>
        <time>2019-06-17T14:18:31.999Z</time>
      </trkpt>
      <trkpt lat="49.49939" lon="3.81151">
        <ele>124.22</ele>
        <time>2019-06-17T14:18:41.999Z</time>
      </trkpt>
      <trkpt lat="49.49945" lon="3.81145">
        <ele>124.66</ele>
        <time>2019-06-17T14:18:51.999Z</time>
      </trkpt>
      <trkpt lat="49.49952" lon="3.81136">
        <ele>126.25</ele>
        <time>2019-06-17T14:19:01.999Z</time>
      </trkpt>
      <trkpt lat="49.49957" lon="3.81126">
        <ele>127.19</ele>
        <time>2019-06-17T14:19:11.999Z</time>
      </trkpt>
      <trkpt lat="49.49964" lon="3.81118">
        <ele>127.26</ele>
        <time>2019-06-17T14:19:21.999Z</time>
      </trkpt>
      <trkpt lat="49.49969" lon="3.8111">
        <ele>127.73</ele>
        <time>2019-06-17T14:19:31.999Z</time>
      </trkpt>
      <trkpt lat="49.49973" lon="3.81095">
        <ele>128.81</ele>
        <time>2019-06-17T14:19:41.999Z</time>
      </trkpt>
      <trkpt lat="49.49974" lon="3.81083">
        <ele>129.64</ele>
        <time>2019-06-17T14:19:51.999Z</time>
      </trkpt>
      <trkpt lat="49.49974" lon="3.81075">
        <ele>131.64</ele>
        <time>2019-06-17T14:20:01.999Z</time>
      </trkpt>
      <trkpt lat="49.49976" lon="3.81061">
        <ele>134.45</ele>
        <time>2019-06-17T14:20:11.999Z</time>
      </trkpt>
      <trkpt lat="49.49977" lon="3.81049">
        <ele>137.04</ele>
        <time>2019-06-17T14:20:21.999Z</time>
      </trkpt>
      <trkpt lat="49.49977" lon="3.81037">
        <ele>139.06</ele>
        <time>2019-06-17T14:20:31.999Z</time>
      </trkpt>
      <trkpt lat="49.49976" lon="3.81026">
        <ele>140.31</ele>
        <time>2019-06-17T14:20:41.999Z</time>
      </trkpt>
      <trkpt lat="49.49975" lon="3.81012">
        <ele>141.51</ele>
        <time>2019-06-17T14:20:51.999Z</time>
      </trkpt>
      <trkpt lat="49.49976" lon="3.81001">
        <ele>142.4</ele>
        <time>2019-06-17T14:21:01.999Z</time>
      </trkpt>
      <trkpt lat="49.49979" lon="3.80991">
        <ele>144.9</ele>
        <time>2019-06-17T14:21:11.999Z</time>
      </trkpt>
      <trkpt lat="49.49984" lon="3.80979">
        <ele>147.38</ele>
        <time>2019-06-17T14:21:21.999Z</time>
      </trkpt>
      <trkpt lat="49.49988" lon="3.8097">
        <ele>149.17</ele>
        <time>2019-06-17T14:21:31.999Z</time>
      </trkpt>
      <trkpt lat="49.49988" lon="3.80961">
        <ele>150.61</ele>
        <time>2019-06-17T14:21:41.999Z</time>
      </trkpt>
      <trkpt lat="49.49989" lon="3.8095">
        <ele>151.4</ele>
        <time>2019-06-17T14:21:51.999Z</time>
      </trkpt>
      <trkpt lat="49.49988" lon="3.80937">
        <ele>151.68</ele>
        <time>2019-06-17T14:22:01.999Z</time>
      </trkpt>
      <trkpt lat="49.49988" lon="3.80923">
        <ele>151.9</ele>
        <time>2019-06-17T14:22:11.999Z</time>
      </trkpt>
      <trkpt lat="49.49987" lon="3.80912">
        <ele>152.22</ele>
        <time>2019-06-17T14:22:21.999Z</time>
      </trkpt>
      <trkpt lat="49.49987" lon="3.80898">
        <ele>152.7</ele>
        <time>2019-06-17T14:22:31.999Z</time>
      </trkpt>
      <trkpt lat="49.49989" lon="3.80882">
        <ele>152.73</ele>
        <time>2019-06-17T14:22:41.999Z</time>
      </trkpt>
      <trkpt lat="49.49992" lon="3.80865">
        <ele>152.53</ele>
        <time>2019-06-17T14:22:51.000Z</time>
      </trkpt>
      <trkpt lat="49.49993" lon="3.80853">
        <ele>152.32</ele>
        <time>2019-06-17T14:23:01.000Z</time>
      </trkpt>
      <trkpt lat="49.49995" lon="3.80842">
        <ele>151.88</ele>
        <time>2019-06-17T14:23:11.000Z</time>
      </trkpt>
      <trkpt lat="49.49997" lon="3.80831">
        <ele>152.56</ele>
        <time>2019-06-17T14:23:21.000Z</time>
      </trkpt>
      <trkpt lat="49.5" lon="3.80822">
        <ele>154.69</ele>
        <time>2019-06-17T14:23:31.000Z</time>
      </trkpt>
      <trkpt lat="49.50006" lon="3.80813">
        <ele>157.5</ele>
        <time>2019-06-17T14:23:41.000Z</time>
      </trkpt>
      <trkpt lat="49.50013" lon="3.808">
        <ele>159.95</ele>
        <time>2019-06-17T14:23:51.000Z</time>
      </trkpt>
      <trkpt lat="49.50017" lon="3.80785">
        <ele>161.9</ele>
        <time>2019-06-17T14:24:01.000Z</time>
      </trkpt>
      <trkpt lat="49.50019" lon="3.80772">
        <ele>163.32</ele>
        <time>2019-06-17T14:24:11.000Z</time>
      </trkpt>
      <trkpt lat="49.5002" lon="3.80759">
        <ele>164.83</ele>
        <time>2019-06-17T14:24:21.000Z</time>
      </trkpt>
      <trkpt lat="49.50021" lon="3.80748">
        <ele>166.82</ele>
        <time>2019-06-17T14:24:31.000Z</time>
      </trkpt>
      <trkpt lat="49.50023" lon="3.80736">
        <ele>168.62</ele>
        <time>2019-06-17T14:24:41.000Z</time>
      </trkpt>
      <trkpt lat="49.50026" lon="3.80724">
        <ele>170.26</ele>
        <time>2019-06-17T14:24:51.000Z</time>
      </trkpt>
      <trkpt lat="49.50026" lon="3.80711">
        <ele>171.71</ele>
        <time>2019-06-17T14:25:01.000Z</time>
      </trkpt>
      <trkpt lat="49.50026" lon="3.80705">
        <ele>173.14</ele>
        <time>2019-06-17T14:25:11.000Z</time>
      </trkpt>
      <trkpt lat="49.50028" lon="3.80706">
        <ele>174.05</ele>
        <time>2019-06-17T14:25:21.000Z</time>
      </trkpt>
      <trkpt lat="49.50028" lon="3.80705">
        <ele>181.94</ele>
        <time>2019-06-17T14:29:33.000Z</time>
      </trkpt>
      <trkpt lat="49.50026" lon="3.80689">
        <ele>182.73</ele>
        <time>2019-06-17T14:29:43.000Z</time>
      </trkpt>
      <trkpt lat="49.50029" lon="3.80683">
        <ele>182.78</ele>
        <time>2019-06-17T14:29:53.000Z</time>
      </trkpt>
      <trkpt lat="49.5003" lon="3.80673">
        <ele>181.92</ele>
        <time>2019-06-17T14:30:03.000Z</time>
      </trkpt>
      <trkpt lat="49.50031" lon="3.80674">
        <ele>180.26</ele>
        <time>2019-06-17T14:30:21.000Z</time>
      </trkpt>
      <trkpt lat="49.50034" lon="3.80669">
        <ele>179.1</ele>
        <time>2019-06-17T14:30:31.000Z</time>
      </trkpt>
      <trkpt lat="49.50038" lon="3.8065">
        <ele>178.95</ele>
        <time>2019-06-17T14:30:41.000Z</time>
      </trkpt>
      <trkpt lat="49.50041" lon="3.80634">
        <ele>179.06</ele>
        <time>2019-06-17T14:30:51.000Z</time>
      </trkpt>
      <trkpt lat="49.50042" lon="3.80615">
        <ele>179.32</ele>
        <time>2019-06-17T14:31:01.000Z</time>
      </trkpt>
      <trkpt lat="49.50044" lon="3.80594">
        <ele>179.94</ele>
        <time>2019-06-17T14:31:11.000Z</time>
      </trkpt>
      <trkpt lat="49.50045" lon="3.80577">
        <ele>180.25</ele>
        <time>2019-06-17T14:31:21.000Z</time>
      </trkpt>
      <trkpt lat="49.50043" lon="3.8056">
        <ele>180.02</ele>
        <time>2019-06-17T14:31:31.000Z</time>
      </trkpt>
      <trkpt lat="49.50045" lon="3.80543">
        <ele>179.25</ele>
        <time>2019-06-17T14:31:41.000Z</time>
      </trkpt>
      <trkpt lat="49.50052" lon="3.8053">
        <ele>178.26</ele>
        <time>2019-06-17T14:31:51.000Z</time>
      </trkpt>
      <trkpt lat="49.50059" lon="3.80514">
        <ele>176.89</ele>
        <time>2019-06-17T14:32:01.000Z</time>
      </trkpt>
      <trkpt lat="49.50063" lon="3.80495">
        <ele>175.35</ele>
        <time>2019-06-17T14:32:11.000Z</time>
      </trkpt>
      <trkpt lat="49.5006" lon="3.80476">
        <ele>174.21</ele>
        <time>2019-06-17T14:32:21.000Z</time>
      </trkpt>
      <trkpt lat="49.50059" lon="3.8046">
        <ele>173.51</ele>
        <time>2019-06-17T14:32:31.000Z</time>
      </trkpt>
      <trkpt lat="49.50053" lon="3.8044">
        <ele>173.04</ele>
        <time>2019-06-17T14:32:41.000Z</time>
      </trkpt>
      <trkpt lat="49.50045" lon="3.80419">
        <ele>171.37</ele>
        <time>2019-06-17T14:32:51.000Z</time>
      </trkpt>
      <trkpt lat="49.5004" lon="3.80398">
        <ele>170.25</ele>
        <time>2019-06-17T14:33:01.000Z</time>
      </trkpt>
      <trkpt lat="49.5004" lon="3.80382">
        <ele>169.2</ele>
        <time>2019-06-17T14:33:11.000Z</time>
      </trkpt>
      <trkpt lat="49.50043" lon="3.80367">
        <ele>168.25</ele>
        <time>2019-06-17T14:33:21.000Z</time>
      </trkpt>
      <trkpt lat="49.50041" lon="3.80351">
        <ele>167.51</ele>
        <time>2019-06-17T14:33:31.000Z</time>
      </trkpt>
      <trkpt lat="49.50036" lon="3.80339">
        <ele>166.99</ele>
        <time>2019-06-17T14:33:41.000Z</time>
      </trkpt>
      <trkpt lat="49.50031" lon="3.80328">
        <ele>167.11</ele>
        <time>2019-06-17T14:33:51.000Z</time>
      </trkpt>
      <trkpt lat="49.50023" lon="3.80315">
        <ele>166.93</ele>
        <time>2019-06-17T14:34:01.000Z</time>
      </trkpt>
      <trkpt lat="49.50016" lon="3.80306">
        <ele>166.32</ele>
        <time>2019-06-17T14:34:11.000Z</time>
      </trkpt>
      <trkpt lat="49.5001" lon="3.80299">
        <ele>165.34</ele>
        <time>2019-06-17T14:34:21.000Z</time>
      </trkpt>
      <trkpt lat="49.50004" lon="3.80289">
        <ele>164.4</ele>
        <time>2019-06-17T14:34:31.000Z</time>
      </trkpt>
      <trkpt lat="49.5" lon="3.80276">
        <ele>162.95</ele>
        <time>2019-06-17T14:34:41.000Z</time>
      </trkpt>
      <trkpt lat="49.5" lon="3.80268">
        <ele>161.41</ele>
        <time>2019-06-17T14:34:51.000Z</time>
      </trkpt>
      <trkpt lat="49.50002" lon="3.80256">
        <ele>160.16</ele>
        <time>2019-06-17T14:35:01.000Z</time>
      </trkpt>
      <trkpt lat="49.50005" lon="3.80242">
        <ele>157.99</ele>
        <time>2019-06-17T14:35:11.000Z</time>
      </trkpt>
      <trkpt lat="49.50007" lon="3.8023">
        <ele>155.97</ele>
        <time>2019-06-17T14:35:21.000Z</time>
      </trkpt>
      <trkpt lat="49.50007" lon="3.8022">
        <ele>153.76</ele>
        <time>2019-06-17T14:35:31.000Z</time>
      </trkpt>
      <trkpt lat="49.50005" lon="3.80204">
        <ele>151.91</ele>
        <time>2019-06-17T14:35:41.000Z</time>
      </trkpt>
      <trkpt lat="49.50004" lon="3.80187">
        <ele>150.28</ele>
        <time>2019-06-17T14:35:51.000Z</time>
      </trkpt>
      <trkpt lat="49.50003" lon="3.80169">
        <ele>148.97</ele>
        <time>2019-06-17T14:36:01.000Z</time>
      </trkpt>
      <trkpt lat="49.49999" lon="3.80154">
        <ele>147.87</ele>
        <time>2019-06-17T14:36:11.000Z</time>
      </trkpt>
      <trkpt lat="49.49996" lon="3.80141">
        <ele>147.03</ele>
        <time>2019-06-17T14:36:21.000Z</time>
      </trkpt>
      <trkpt lat="49.49994" lon="3.80127">
        <ele>146.16</ele>
        <time>2019-06-17T14:36:31.000Z</time>
      </trkpt>
      <trkpt lat="49.49993" lon="3.80117">
        <ele>145.04</ele>
        <time>2019-06-17T14:36:41.000Z</time>
      </trkpt>
      <trkpt lat="49.49993" lon="3.80105">
        <ele>143.47</ele>
        <time>2019-06-17T14:36:51.000Z</time>
      </trkpt>
      <trkpt lat="49.49992" lon="3.80086">
        <ele>141.9</ele>
        <time>2019-06-17T14:37:01.000Z</time>
      </trkpt>
      <trkpt lat="49.49989" lon="3.8007">
        <ele>141.04</ele>
        <time>2019-06-17T14:37:11.000Z</time>
      </trkpt>
      <trkpt lat="49.49984" lon="3.80055">
        <ele>140.19</ele>
        <time>2019-06-17T14:37:21.000Z</time>
      </trkpt>
      <trkpt lat="49.49978" lon="3.80042">
        <ele>139.55</ele>
        <time>2019-06-17T14:37:31.000Z</time>
      </trkpt>
      <trkpt lat="49.49971" lon="3.80028">
        <ele>138.53</ele>
        <time>2019-06-17T14:37:41.000Z</time>
      </trkpt>
      <trkpt lat="49.49968" lon="3.80022">
        <ele>137.13</ele>
        <time>2019-06-17T14:37:51.000Z</time>
      </trkpt>
      <trkpt lat="49.49964" lon="3.80011">
        <ele>135.34</ele>
        <time>2019-06-17T14:38:01.000Z</time>
      </trkpt>
      <trkpt lat="49.4996" lon="3.8">
        <ele>133.45</ele>
        <time>2019-06-17T14:38:11.000Z</time>
      </trkpt>
      <trkpt lat="49.49956" lon="3.79989">
        <ele>131.59</ele>
        <time>2019-06-17T14:38:21.000Z</time>
      </trkpt>
      <trkpt lat="49.4995" lon="3.79977">
        <ele>129.41</ele>
        <time>2019-06-17T14:38:31.000Z</time>
      </trkpt>
      <trkpt lat="49.49946" lon="3.79964">
        <ele>128.47</ele>
        <time>2019-06-17T14:38:41.000Z</time>
      </trkpt>
      <trkpt lat="49.49941" lon="3.79953">
        <ele>127.73</ele>
        <time>2019-06-17T14:38:51.000Z</time>
      </trkpt>
      <trkpt lat="49.49938" lon="3.79939">
        <ele>126.57</ele>
        <time>2019-06-17T14:39:01.000Z</time>
      </trkpt>
      <trkpt lat="49.4993" lon="3.79933">
        <ele>125.76</ele>
        <time>2019-06-17T14:39:11.000Z</time>
      </trkpt>
      <trkpt lat="49.49926" lon="3.79921">
        <ele>124.69</ele>
        <time>2019-06-17T14:39:21.000Z</time>
      </trkpt>
      <trkpt lat="49.49921" lon="3.79905">
        <ele>123.45</ele>
        <time>2019-06-17T14:39:31.000Z</time>
      </trkpt>
      <trkpt lat="49.49915" lon="3.79892">
        <ele>122.76</ele>
        <time>2019-06-17T14:39:41.000Z</time>
      </trkpt>
      <trkpt lat="49.49911" lon="3.79884">
        <ele>122.92</ele>
        <time>2019-06-17T14:39:51.000Z</time>
      </trkpt>
      <trkpt lat="49.49906" lon="3.79874">
        <ele>123.03</ele>
        <time>2019-06-17T14:40:01.000Z</time>
      </trkpt>
      <trkpt lat="49.49903" lon="3.79864">
        <ele>122.88</ele>
        <time>2019-06-17T14:40:11.000Z</time>
      </trkpt>
      <trkpt lat="49.49899" lon="3.79849">
        <ele>123.14</ele>
        <time>2019-06-17T14:40:21.000Z</time>
      </trkpt>
      <trkpt lat="49.49896" lon="3.79835">
        <ele>123.48</ele>
        <time>2019-06-17T14:40:31.000Z</time>
      </trkpt>
      <trkpt lat="49.49895" lon="3.79824">
        <ele>123.48</ele>
        <time>2019-06-17T14:40:41.000Z</time>
      </trkpt>
      <trkpt lat="49.49893" lon="3.79816">
        <ele>123.15</ele>
        <time>2019-06-17T14:40:51.000Z</time>
      </trkpt>
      <trkpt lat="49.49889" lon="3.79803">
        <ele>122.71</ele>
        <time>2019-06-17T14:41:01.000Z</time>
      </trkpt>
      <trkpt lat="49.49885" lon="3.79791">
        <ele>122.16</ele>
        <time>2019-06-17T14:41:11.000Z</time>
      </trkpt>
      <trkpt lat="49.49879" lon="3.79784">
        <ele>121.8</ele>
        <time>2019-06-17T14:41:21.000Z</time>
      </trkpt>
      <trkpt lat="49.49877" lon="3.7978">
        <ele>121.64</ele>
        <time>2019-06-17T14:41:31.000Z</time>
      </trkpt>
      <trkpt lat="49.49875" lon="3.7977">
        <ele>121.49</ele>
        <time>2019-06-17T14:41:41.000Z</time>
      </trkpt>
      <trkpt lat="49.49874" lon="3.79757">
        <ele>121.86</ele>
        <time>2019-06-17T14:41:51.000Z</time>
      </trkpt>
      <trkpt lat="49.49872" lon="3.79748">
        <ele>122.69</ele>
        <time>2019-06-17T14:42:01.000Z</time>
      </trkpt>
      <trkpt lat="49.49872" lon="3.79737">
        <ele>123.74</ele>
        <time>2019-06-17T14:42:11.000Z</time>
      </trkpt>
      <trkpt lat="49.49871" lon="3.79722">
        <ele>125.05</ele>
        <time>2019-06-17T14:42:21.000Z</time>
      </trkpt>
      <trkpt lat="49.49868" lon="3.79709">
        <ele>126.05</ele>
        <time>2019-06-17T14:42:31.000Z</time>
      </trkpt>
      <trkpt lat="49.49866" lon="3.79698">
        <ele>127.22</ele>
        <time>2019-06-17T14:42:41.000Z</time>
      </trkpt>
      <trkpt lat="49.49865" lon="3.79688">
        <ele>128.4</ele>
        <time>2019-06-17T14:42:51.000Z</time>
      </trkpt>
      <trkpt lat="49.49861" lon="3.79672">
        <ele>129.02</ele>
        <time>2019-06-17T14:43:01.000Z</time>
      </trkpt>
      <trkpt lat="49.49852" lon="3.79651">
        <ele>129.39</ele>
        <time>2019-06-17T14:43:11.000Z</time>
      </trkpt>
      <trkpt lat="49.49847" lon="3.79639">
        <ele>129.54</ele>
        <time>2019-06-17T14:43:21.000Z</time>
      </trkpt>
      <trkpt lat="49.49846" lon="3.79627">
        <ele>129.95</ele>
        <time>2019-06-17T14:43:31.000Z</time>
      </trkpt>
      <trkpt lat="49.49843" lon="3.79611">
        <ele>130.73</ele>
        <time>2019-06-17T14:43:41.000Z</time>
      </trkpt>
      <trkpt lat="49.49841" lon="3.79597">
        <ele>131.47</ele>
        <time>2019-06-17T14:43:51.000Z</time>
      </trkpt>
      <trkpt lat="49.49841" lon="3.79587">
        <ele>132.77</ele>
        <time>2019-06-17T14:44:01.000Z</time>
      </trkpt>
      <trkpt lat="49.49841" lon="3.79574">
        <ele>134.16</ele>
        <time>2019-06-17T14:44:11.000Z</time>
      </trkpt>
      <trkpt lat="49.49842" lon="3.79561">
        <ele>135.2</ele>
        <time>2019-06-17T14:44:21.000Z</time>
      </trkpt>
      <trkpt lat="49.49841" lon="3.79546">
        <ele>136.19</ele>
        <time>2019-06-17T14:44:31.000Z</time>
      </trkpt>
      <trkpt lat="49.49842" lon="3.79535">
        <ele>137.34</ele>
        <time>2019-06-17T14:44:41.000Z</time>
      </trkpt>
      <trkpt lat="49.4984" lon="3.79523">
        <ele>138.73</ele>
        <time>2019-06-17T14:44:51.000Z</time>
      </trkpt>
      <trkpt lat="49.49841" lon="3.79507">
        <ele>139.92</ele>
        <time>2019-06-17T14:45:01.000Z</time>
      </trkpt>
      <trkpt lat="49.49841" lon="3.79492">
        <ele>140.82</ele>
        <time>2019-06-17T14:45:11.000Z</time>
      </trkpt>
      <trkpt lat="49.49841" lon="3.79479">
        <ele>141.63</ele>
        <time>2019-06-17T14:45:21.000Z</time>
      </trkpt>
      <trkpt lat="49.49841" lon="3.79465">
        <ele>142.16</ele>
        <time>2019-06-17T14:45:31.000Z</time>
      </trkpt>
      <trkpt lat="49.49839" lon="3.79461">
        <ele>142.76</ele>
        <time>2019-06-17T14:45:41.000Z</time>
      </trkpt>
      <trkpt lat="49.49838" lon="3.7946">
        <ele>149.54</ele>
        <time>2019-06-17T14:47:37.000Z</time>
      </trkpt>
      <trkpt lat="49.49836" lon="3.79456">
        <ele>149.7</ele>
        <time>2019-06-17T14:47:47.000Z</time>
      </trkpt>
      <trkpt lat="49.49837" lon="3.79456">
        <ele>150.74</ele>
        <time>2019-06-17T14:48:33.000Z</time>
      </trkpt>
      <trkpt lat="49.49837" lon="3.79461">
        <ele>150.72</ele>
        <time>2019-06-17T14:48:43.000Z</time>
      </trkpt>
      <trkpt lat="49.49838" lon="3.79458">
        <ele>150.62</ele>
        <time>2019-06-17T14:48:53.000Z</time>
      </trkpt>
      <trkpt lat="49.4984" lon="3.79456">
        <ele>150.27</ele>
        <time>2019-06-17T14:49:03.000Z</time>
      </trkpt>
      <trkpt lat="49.49847" lon="3.7944">
        <ele>148.71</ele>
        <time>2019-06-17T14:49:13.000Z</time>
      </trkpt>
      <trkpt lat="49.49851" lon="3.79425">
        <ele>147.68</ele>
        <time>2019-06-17T14:49:23.000Z</time>
      </trkpt>
      <trkpt lat="49.49854" lon="3.79414">
        <ele>147.49</ele>
        <time>2019-06-17T14:49:33.000Z</time>
      </trkpt>
      <trkpt lat="49.49858" lon="3.79403">
        <ele>146.87</ele>
        <time>2019-06-17T14:49:43.000Z</time>
      </trkpt>
      <trkpt lat="49.49859" lon="3.79389">
        <ele>146.04</ele>
        <time>2019-06-17T14:49:53.000Z</time>
      </trkpt>
      <trkpt lat="49.49859" lon="3.79369">
        <ele>145.24</ele>
        <time>2019-06-17T14:50:03.000Z</time>
      </trkpt>
      <trkpt lat="49.49856" lon="3.79352">
        <ele>144.39</ele>
        <time>2019-06-17T14:50:13.000Z</time>
      </trkpt>
      <trkpt lat="49.49854" lon="3.79336">
        <ele>144.03</ele>
        <time>2019-06-17T14:50:23.000Z</time>
      </trkpt>
      <trkpt lat="49.4985" lon="3.79321">
        <ele>143.98</ele>
        <time>2019-06-17T14:50:33.000Z</time>
      </trkpt>
      <trkpt lat="49.49845" lon="3.79302">
        <ele>144.14</ele>
        <time>2019-06-17T14:50:43.000Z</time>
      </trkpt>
      <trkpt lat="49.49842" lon="3.79284">
        <ele>144.46</ele>
        <time>2019-06-17T14:50:53.000Z</time>
      </trkpt>
      <trkpt lat="49.49841" lon="3.7927">
        <ele>145.24</ele>
        <time>2019-06-17T14:51:03.000Z</time>
      </trkpt>
      <trkpt lat="49.49842" lon="3.79254">
        <ele>145.62</ele>
        <time>2019-06-17T14:51:13.000Z</time>
      </trkpt>
      <trkpt lat="49.49844" lon="3.79238">
        <ele>145.68</ele>
        <time>2019-06-17T14:51:23.000Z</time>
      </trkpt>
      <trkpt lat="49.49845" lon="3.79224">
        <ele>145.85</ele>
        <time>2019-06-17T14:51:33.000Z</time>
      </trkpt>
      <trkpt lat="49.49846" lon="3.79209">
        <ele>146.39</ele>
        <time>2019-06-17T14:51:43.000Z</time>
      </trkpt>
      <trkpt lat="49.49846" lon="3.79197">
        <ele>147</ele>
        <time>2019-06-17T14:51:53.000Z</time>
      </trkpt>
      <trkpt lat="49.49845" lon="3.79192">
        <ele>147.24</ele>
        <time>2019-06-17T14:52:03.000Z</time>
      </trkpt>
      <trkpt lat="49.49845" lon="3.79191">
        <ele>147.65</ele>
        <time>2019-06-17T14:52:21.000Z</time>
      </trkpt>
      <trkpt lat="49.49843" lon="3.79188">
        <ele>148</ele>
        <time>2019-06-17T14:52:31.000Z</time>
      </trkpt>
      <trkpt lat="49.49844" lon="3.79189">
        <ele>148.74</ele>
        <time>2019-06-17T14:52:57.000Z</time>
      </trkpt>
      <trkpt lat="49.49853" lon="3.79185">
        <ele>149.48</ele>
        <time>2019-06-17T14:53:07.000Z</time>
      </trkpt>
      <trkpt lat="49.49861" lon="3.79179">
        <ele>149.4</ele>
        <time>2019-06-17T14:53:17.000Z</time>
      </trkpt>
      <trkpt lat="49.49861" lon="3.79181">
        <ele>149.74</ele>
        <time>2019-06-17T14:53:27.000Z</time>
      </trkpt>
      <trkpt lat="49.49866" lon="3.79186">
        <ele>150.42</ele>
        <time>2019-06-17T14:53:37.000Z</time>
      </trkpt>
      <trkpt lat="49.49878" lon="3.79187">
        <ele>150.73</ele>
        <time>2019-06-17T14:53:47.000Z</time>
      </trkpt>
      <trkpt lat="49.49891" lon="3.7918">
        <ele>151.77</ele>
        <time>2019-06-17T14:53:57.000Z</time>
      </trkpt>
      <trkpt lat="49.499" lon="3.79156">
        <ele>152.61</ele>
        <time>2019-06-17T14:54:07.000Z</time>
      </trkpt>
      <trkpt lat="49.49901" lon="3.79147">
        <ele>153.32</ele>
        <time>2019-06-17T14:54:17.000Z</time>
      </trkpt>
      <trkpt lat="49.499" lon="3.79146">
        <ele>154.7</ele>
        <time>2019-06-17T14:54:31.000Z</time>
      </trkpt>
      <trkpt lat="49.49901" lon="3.79145">
        <ele>157.97</ele>
        <time>2019-06-17T14:54:59.000Z</time>
      </trkpt>
      <trkpt lat="49.49904" lon="3.79139">
        <ele>159.99</ele>
        <time>2019-06-17T14:55:09.000Z</time>
      </trkpt>
      <trkpt lat="49.49902" lon="3.79125">
        <ele>161.55</ele>
        <time>2019-06-17T14:55:19.000Z</time>
      </trkpt>
      <trkpt lat="49.49904" lon="3.7911">
        <ele>162.37</ele>
        <time>2019-06-17T14:55:29.000Z</time>
      </trkpt>
      <trkpt lat="49.49904" lon="3.79101">
        <ele>162.57</ele>
        <time>2019-06-17T14:55:39.000Z</time>
      </trkpt>
      <trkpt lat="49.49908" lon="3.79091">
        <ele>163.87</ele>
        <time>2019-06-17T14:55:49.000Z</time>
      </trkpt>
      <trkpt lat="49.49915" lon="3.79075">
        <ele>165.07</ele>
        <time>2019-06-17T14:55:59.000Z</time>
      </trkpt>
      <trkpt lat="49.49921" lon="3.79069">
        <ele>166.5</ele>
        <time>2019-06-17T14:56:09.000Z</time>
      </trkpt>
      <trkpt lat="49.49922" lon="3.79057">
        <ele>167.58</ele>
        <time>2019-06-17T14:56:19.000Z</time>
      </trkpt>
      <trkpt lat="49.49924" lon="3.79046">
        <ele>168.19</ele>
        <time>2019-06-17T14:56:29.000Z</time>
      </trkpt>
      <trkpt lat="49.49926" lon="3.79031">
        <ele>168.66</ele>
        <time>2019-06-17T14:56:39.000Z</time>
      </trkpt>
      <trkpt lat="49.4993" lon="3.79021">
        <ele>169.91</ele>
        <time>2019-06-17T14:56:49.000Z</time>
      </trkpt>
      <trkpt lat="49.49931" lon="3.79016">
        <ele>170.39</ele>
        <time>2019-06-17T14:56:59.000Z</time>
      </trkpt>
      <trkpt lat="49.49935" lon="3.79009">
        <ele>171.07</ele>
        <time>2019-06-17T14:57:09.000Z</time>
      </trkpt>
      <trkpt lat="49.49939" lon="3.78999">
        <ele>170.92</ele>
        <time>2019-06-17T14:57:19.000Z</time>
      </trkpt>
      <trkpt lat="49.49942" lon="3.78988">
        <ele>170.79</ele>
        <time>2019-06-17T14:57:29.000Z</time>
      </trkpt>
      <trkpt lat="49.49946" lon="3.7898">
        <ele>170.94</ele>
        <time>2019-06-17T14:57:39.000Z</time>
      </trkpt>
      <trkpt lat="49.49958" lon="3.78972">
        <ele>171.62</ele>
        <time>2019-06-17T14:57:49.000Z</time>
      </trkpt>
      <trkpt lat="49.49967" lon="3.7896">
        <ele>172.46</ele>
        <time>2019-06-17T14:57:59.000Z</time>
      </trkpt>
      <trkpt lat="49.49972" lon="3.78948">
        <ele>173.33</ele>
        <time>2019-06-17T14:58:09.000Z</time>
      </trkpt>
      <trkpt lat="49.49976" lon="3.78938">
        <ele>173.98</ele>
        <time>2019-06-17T14:58:19.000Z</time>
      </trkpt>
      <trkpt lat="49.49979" lon="3.78926">
        <ele>174.48</ele>
        <time>2019-06-17T14:58:29.000Z</time>
      </trkpt>
      <trkpt lat="49.49986" lon="3.78918">
        <ele>175.18</ele>
        <time>2019-06-17T14:58:39.000Z</time>
      </trkpt>
      <trkpt lat="49.49988" lon="3.78907">
        <ele>175</ele>
        <time>2019-06-17T14:58:49.000Z</time>
      </trkpt>
      <trkpt lat="49.49988" lon="3.78895">
        <ele>174.37</ele>
        <time>2019-06-17T14:58:59.000Z</time>
      </trkpt>
      <trkpt lat="49.49992" lon="3.78882">
        <ele>174.89</ele>
        <time>2019-06-17T14:59:09.000Z</time>
      </trkpt>
      <trkpt lat="49.49998" lon="3.78872">
        <ele>175.57</ele>
        <time>2019-06-17T14:59:19.000Z</time>
      </trkpt>
      <trkpt lat="49.5" lon="3.78863">
        <ele>176.33</ele>
        <time>2019-06-17T14:59:29.000Z</time>
      </trkpt>
      <trkpt lat="49.50002" lon="3.78852">
        <ele>177.14</ele>
        <time>2019-06-17T14:59:39.000Z</time>
      </trkpt>
      <trkpt lat="49.50004" lon="3.78842">
        <ele>177.71</ele>
        <time>2019-06-17T14:59:49.000Z</time>
      </trkpt>
      <trkpt lat="49.5" lon="3.78828">
        <ele>177.1</ele>
        <time>2019-06-17T14:59:59.000Z</time>
      </trkpt>
      <trkpt lat="49.49997" lon="3.78811">
        <ele>177.41</ele>
        <time>2019-06-17T15:00:09.000Z</time>
      </trkpt>
      <trkpt lat="49.49994" lon="3.78798">
        <ele>177.31</ele>
        <time>2019-06-17T15:00:19.000Z</time>
      </trkpt>
      <trkpt lat="49.49996" lon="3.78787">
        <ele>177.53</ele>
        <time>2019-06-17T15:00:29.000Z</time>
      </trkpt>
      <trkpt lat="49.49996" lon="3.78771">
        <ele>178.49</ele>
        <time>2019-06-17T15:00:39.000Z</time>
      </trkpt>
      <trkpt lat="49.49996" lon="3.78751">
        <ele>179.54</ele>
        <time>2019-06-17T15:00:49.000Z</time>
      </trkpt>
      <trkpt lat="49.49999" lon="3.78735">
        <ele>181.06</ele>
        <time>2019-06-17T15:00:59.000Z</time>
      </trkpt>
      <trkpt lat="49.49998" lon="3.78719">
        <ele>183.08</ele>
        <time>2019-06-17T15:01:09.000Z</time>
      </trkpt>
      <trkpt lat="49.49998" lon="3.78709">
        <ele>184.93</ele>
        <time>2019-06-17T15:01:19.000Z</time>
      </trkpt>
      <trkpt lat="49.49997" lon="3.78699">
        <ele>187.05</ele>
        <time>2019-06-17T15:01:29.000Z</time>
      </trkpt>
      <trkpt lat="49.49996" lon="3.78685">
        <ele>189.26</ele>
        <time>2019-06-17T15:01:39.000Z</time>
      </trkpt>
      <trkpt lat="49.49993" lon="3.78669">
        <ele>190.6</ele>
        <time>2019-06-17T15:01:49.000Z</time>
      </trkpt>
      <trkpt lat="49.49991" lon="3.78656">
        <ele>191.39</ele>
        <time>2019-06-17T15:01:59.000Z</time>
      </trkpt>
      <trkpt lat="49.49989" lon="3.78648">
        <ele>192.48</ele>
        <time>2019-06-17T15:02:09.000Z</time>
      </trkpt>
      <trkpt lat="49.49992" lon="3.78634">
        <ele>194.14</ele>
        <time>2019-06-17T15:02:19.000Z</time>
      </trkpt>
      <trkpt lat="49.49991" lon="3.7862">
        <ele>195.33</ele>
        <time>2019-06-17T15:02:29.000Z</time>
      </trkpt>
      <trkpt lat="49.4999" lon="3.78609">
        <ele>196.57</ele>
        <time>2019-06-17T15:02:39.000Z</time>
      </trkpt>
      <trkpt lat="49.49989" lon="3.78605">
        <ele>197.27</ele>
        <time>2019-06-17T15:02:49.000Z</time>
      </trkpt>
      <trkpt lat="49.4999" lon="3.78599">
        <ele>199.05</ele>
        <time>2019-06-17T15:02:59.000Z</time>
      </trkpt>
      <trkpt lat="49.4999" lon="3.78589">
        <ele>200.68</ele>
        <time>2019-06-17T15:03:09.000Z</time>
      </trkpt>
      <trkpt lat="49.49991" lon="3.78574">
        <ele>201.99</ele>
        <time>2019-06-17T15:03:19.000Z</time>
      </trkpt>
      <trkpt lat="49.49994" lon="3.78562">
        <ele>202.63</ele>
        <time>2019-06-17T15:03:29.000Z</time>
      </trkpt>
      <trkpt lat="49.49994" lon="3.78547">
        <ele>203.19</ele>
        <time>2019-06-17T15:03:39.000Z</time>
      </trkpt>
      <trkpt lat="49.49993" lon="3.78533">
        <ele>203.84</ele>
        <time>2019-06-17T15:03:49.000Z</time>
      </trkpt>
      <trkpt lat="49.49994" lon="3.78521">
        <ele>204.34</ele>
        <time>2019-06-17T15:03:59.000Z</time>
      </trkpt>
      <trkpt lat="49.49996" lon="3.78503">
        <ele>205</ele>
        <time>2019-06-17T15:04:09.000Z</time>
      </trkpt>
      <trkpt lat="49.49997" lon="3.78485">
        <ele>205.79</ele>
        <time>2019-06-17T15:04:19.000Z</time>
      </trkpt>
      <trkpt lat="49.5" lon="3.78476">
        <ele>206.51</ele>
        <time>2019-06-17T15:04:29.000Z</time>
      </trkpt>
      <trkpt lat="49.5" lon="3.78468">
        <ele>208.43</ele>
        <time>2019-06-17T15:04:39.000Z</time>
      </trkpt>
      <trkpt lat="49.5" lon="3.78458">
        <ele>210.74</ele>
        <time>2019-06-17T15:04:49.000Z</time>
      </trkpt>
      <trkpt lat="49.49997" lon="3.78455">
        <ele>211.43</ele>
        <time>2019-06-17T15:04:59.000Z</time>
      </trkpt>
      <trkpt lat="49.49995" lon="3.78454">
        <ele>210.59</ele>
        <time>2019-06-17T15:06:51.000Z</time>
      </trkpt>
      <trkpt lat="49.49991" lon="3.78448">
        <ele>210.15</ele>
        <time>2019-06-17T15:07:01.000Z</time>
      </trkpt>
      <trkpt lat="49.49995" lon="3.7845">
        <ele>210.04</ele>
        <time>2019-06-17T15:07:11.000Z</time>
      </trkpt>
      <trkpt lat="49.49995" lon="3.78448">
        <ele>210.41</ele>
        <time>2019-06-17T15:07:21.000Z</time>
      </trkpt>
      <trkpt lat="49.49996" lon="3.78447">
        <ele>210.9</ele>
        <time>2019-06-17T15:07:31.000Z</time>
      </trkpt>
      <trkpt lat="49.5" lon="3.78442">
        <ele>210.99</ele>
        <time>2019-06-17T15:07:41.000Z</time>
      </trkpt>
      <trkpt lat="49.50007" lon="3.78442">
        <ele>211.15</ele>
        <time>2019-06-17T15:07:51.000Z</time>
      </trkpt>
      <trkpt lat="49.50013" lon="3.78433">
        <ele>211.15</ele>
        <time>2019-06-17T15:08:01.000Z</time>
      </trkpt>
      <trkpt lat="49.5002" lon="3.78427">
        <ele>211</ele>
        <time>2019-06-17T15:08:11.000Z</time>
      </trkpt>
      <trkpt lat="49.50026" lon="3.78423">
        <ele>210.6</ele>
        <time>2019-06-17T15:08:21.000Z</time>
      </trkpt>
      <trkpt lat="49.50032" lon="3.78417">
        <ele>210.1</ele>
        <time>2019-06-17T15:08:31.000Z</time>
      </trkpt>
      <trkpt lat="49.50041" lon="3.78413">
        <ele>209.63</ele>
        <time>2019-06-17T15:08:41.000Z</time>
      </trkpt>
      <trkpt lat="49.50048" lon="3.7841">
        <ele>209.32</ele>
        <time>2019-06-17T15:08:51.000Z</time>
      </trkpt>
      <trkpt lat="49.50056" lon="3.78406">
        <ele>209.46</ele>
        <time>2019-06-17T15:09:01.000Z</time>
      </trkpt>
      <trkpt lat="49.5007" lon="3.78402">
        <ele>209.52</ele>
        <time>2019-06-17T15:09:11.000Z</time>
      </trkpt>
      <trkpt lat="49.50079" lon="3.78395">
        <ele>209.63</ele>
        <time>2019-06-17T15:09:21.000Z</time>
      </trkpt>
      <trkpt lat="49.50089" lon="3.78391">
        <ele>209.45</ele>
        <time>2019-06-17T15:09:31.000Z</time>
      </trkpt>
      <trkpt lat="49.50098" lon="3.78385">
        <ele>209.02</ele>
        <time>2019-06-17T15:09:41.000Z</time>
      </trkpt>
      <trkpt lat="49.50108" lon="3.78375">
        <ele>208.96</ele>
        <time>2019-06-17T15:09:51.000Z</time>
      </trkpt>
      <trkpt lat="49.50121" lon="3.78366">
        <ele>209.3</ele>
        <time>2019-06-17T15:10:01.000Z</time>
      </trkpt>
      <trkpt lat="49.50131" lon="3.7836">
        <ele>209.88</ele>
        <time>2019-06-17T15:10:11.000Z</time>
      </trkpt>
      <trkpt lat="49.50141" lon="3.78355">
        <ele>210.51</ele>
        <time>2019-06-17T15:10:21.000Z</time>
      </trkpt>
      <trkpt lat="49.50151" lon="3.78351">
        <ele>210.77</ele>
        <time>2019-06-17T15:10:31.000Z</time>
      </trkpt>
      <trkpt lat="49.50159" lon="3.78346">
        <ele>210.48</ele>
        <time>2019-06-17T15:10:41.000Z</time>
      </trkpt>
      <trkpt lat="49.50166" lon="3.78342">
        <ele>209.94</ele>
        <time>2019-06-17T15:10:51.000Z</time>
      </trkpt>
      <trkpt lat="49.50173" lon="3.78335">
        <ele>209.14</ele>
        <time>2019-06-17T15:11:01.000Z</time>
      </trkpt>
      <trkpt lat="49.50184" lon="3.78329">
        <ele>208.58</ele>
        <time>2019-06-17T15:11:11.000Z</time>
      </trkpt>
      <trkpt lat="49.50194" lon="3.78322">
        <ele>207.9</ele>
        <time>2019-06-17T15:11:21.000Z</time>
      </trkpt>
      <trkpt lat="49.50203" lon="3.78314">
        <ele>206.77</ele>
        <time>2019-06-17T15:11:31.000Z</time>
      </trkpt>
      <trkpt lat="49.50212" lon="3.78308">
        <ele>205.9</ele>
        <time>2019-06-17T15:11:41.000Z</time>
      </trkpt>
      <trkpt lat="49.50222" lon="3.78301">
        <ele>205.13</ele>
        <time>2019-06-17T15:11:51.000Z</time>
      </trkpt>
      <trkpt lat="49.50233" lon="3.78295">
        <ele>204.27</ele>
        <time>2019-06-17T15:12:01.000Z</time>
      </trkpt>
      <trkpt lat="49.50243" lon="3.78288">
        <ele>203.5</ele>
        <time>2019-06-17T15:12:11.000Z</time>
      </trkpt>
      <trkpt lat="49.50253" lon="3.78281">
        <ele>203.03</ele>
        <time>2019-06-17T15:12:21.000Z</time>
      </trkpt>
      <trkpt lat="49.50264" lon="3.78275">
        <ele>202.87</ele>
        <time>2019-06-17T15:12:31.000Z</time>
      </trkpt>
      <trkpt lat="49.50275" lon="3.78269">
        <ele>202.57</ele>
        <time>2019-06-17T15:12:41.000Z</time>
      </trkpt>
      <trkpt lat="49.50285" lon="3.78263">
        <ele>202.11</ele>
        <time>2019-06-17T15:12:51.000Z</time>
      </trkpt>
      <trkpt lat="49.50296" lon="3.78256">
        <ele>201.55</ele>
        <time>2019-06-17T15:13:01.000Z</time>
      </trkpt>
      <trkpt lat="49.50305" lon="3.78249">
        <ele>201.13</ele>
        <time>2019-06-17T15:13:11.000Z</time>
      </trkpt>
      <trkpt lat="49.50315" lon="3.78241">
        <ele>200.76</ele>
        <time>2019-06-17T15:13:21.000Z</time>
      </trkpt>
      <trkpt lat="49.50327" lon="3.78232">
        <ele>200.83</ele>
        <time>2019-06-17T15:13:31.000Z</time>
      </trkpt>
      <trkpt lat="49.50338" lon="3.78227">
        <ele>201.32</ele>
        <time>2019-06-17T15:13:41.000Z</time>
      </trkpt>
      <trkpt lat="49.5035" lon="3.78223">
        <ele>201.88</ele>
        <time>2019-06-17T15:13:51.000Z</time>
      </trkpt>
      <trkpt lat="49.50359" lon="3.7822">
        <ele>202.42</ele>
        <time>2019-06-17T15:14:01.000Z</time>
      </trkpt>
      <trkpt lat="49.50369" lon="3.78216">
        <ele>203.84</ele>
        <time>2019-06-17T15:14:11.000Z</time>
      </trkpt>
      <trkpt lat="49.50383" lon="3.7821">
        <ele>205.89</ele>
        <time>2019-06-17T15:14:21.000Z</time>
      </trkpt>
      <trkpt lat="49.50394" lon="3.78206">
        <ele>207.59</ele>
        <time>2019-06-17T15:14:31.000Z</time>
      </trkpt>
      <trkpt lat="49.50404" lon="3.78202">
        <ele>209.12</ele>
        <time>2019-06-17T15:14:41.000Z</time>
      </trkpt>
      <trkpt lat="49.50414" lon="3.78197">
        <ele>210.63</ele>
        <time>2019-06-17T15:14:51.000Z</time>
      </trkpt>
      <trkpt lat="49.50425" lon="3.78192">
        <ele>211.87</ele>
        <time>2019-06-17T15:15:01.000Z</time>
      </trkpt>
      <trkpt lat="49.50435" lon="3.78188">
        <ele>212.7</ele>
        <time>2019-06-17T15:15:11.000Z</time>
      </trkpt>
      <trkpt lat="49.50446" lon="3.78182">
        <ele>213.26</ele>
        <time>2019-06-17T15:15:21.000Z</time>
      </trkpt>
      <trkpt lat="49.50456" lon="3.78178">
        <ele>213.69</ele>
        <time>2019-06-17T15:15:31.000Z</time>
      </trkpt>
      <trkpt lat="49.50468" lon="3.78171">
        <ele>214.13</ele>
        <time>2019-06-17T15:15:41.000Z</time>
      </trkpt>
      <trkpt lat="49.50478" lon="3.78166">
        <ele>214.43</ele>
        <time>2019-06-17T15:15:51.000Z</time>
      </trkpt>
      <trkpt lat="49.50488" lon="3.7816">
        <ele>214</ele>
        <time>2019-06-17T15:16:01.000Z</time>
      </trkpt>
      <trkpt lat="49.50498" lon="3.78151">
        <ele>213.41</ele>
        <time>2019-06-17T15:16:11.000Z</time>
      </trkpt>
      <trkpt lat="49.50507" lon="3.78145">
        <ele>212.68</ele>
        <time>2019-06-17T15:16:21.000Z</time>
      </trkpt>
      <trkpt lat="49.50516" lon="3.78139">
        <ele>211.97</ele>
        <time>2019-06-17T15:16:31.000Z</time>
      </trkpt>
      <trkpt lat="49.50527" lon="3.78136">
        <ele>211.35</ele>
        <time>2019-06-17T15:16:41.000Z</time>
      </trkpt>
      <trkpt lat="49.50535" lon="3.78136">
        <ele>210.53</ele>
        <time>2019-06-17T15:16:51.000Z</time>
      </trkpt>
      <trkpt lat="49.50541" lon="3.78133">
        <ele>209.75</ele>
        <time>2019-06-17T15:17:01.000Z</time>
      </trkpt>
      <trkpt lat="49.50551" lon="3.78132">
        <ele>209.02</ele>
        <time>2019-06-17T15:17:11.000Z</time>
      </trkpt>
      <trkpt lat="49.50556" lon="3.78127">
        <ele>208.67</ele>
        <time>2019-06-17T15:17:21.000Z</time>
      </trkpt>
      <trkpt lat="49.50555" lon="3.78128">
        <ele>195.64</ele>
        <time>2019-06-17T15:17:42.000Z</time>
      </trkpt>
      <trkpt lat="49.50552" lon="3.78131">
        <ele>207.35</ele>
        <time>2019-06-17T15:17:52.000Z</time>
      </trkpt>
      <trkpt lat="49.50551" lon="3.78134">
        <ele>207.51</ele>
        <time>2019-06-17T15:18:02.000Z</time>
      </trkpt>
      <trkpt lat="49.50552" lon="3.78136">
        <ele>207.29</ele>
        <time>2019-06-17T15:18:24.000Z</time>
      </trkpt>
      <trkpt lat="49.50558" lon="3.78137">
        <ele>207.3</ele>
        <time>2019-06-17T15:18:34.000Z</time>
      </trkpt>
      <trkpt lat="49.50571" lon="3.78131">
        <ele>207.73</ele>
        <time>2019-06-17T15:18:44.000Z</time>
      </trkpt>
      <trkpt lat="49.50581" lon="3.78128">
        <ele>208.31</ele>
        <time>2019-06-17T15:18:54.000Z</time>
      </trkpt>
      <trkpt lat="49.50595" lon="3.78123">
        <ele>208.59</ele>
        <time>2019-06-17T15:19:04.000Z</time>
      </trkpt>
      <trkpt lat="49.50609" lon="3.78119">
        <ele>208.87</ele>
        <time>2019-06-17T15:19:14.000Z</time>
      </trkpt>
      <trkpt lat="49.50617" lon="3.78114">
        <ele>208.89</ele>
        <time>2019-06-17T15:19:24.000Z</time>
      </trkpt>
      <trkpt lat="49.50624" lon="3.78108">
        <ele>208.62</ele>
        <time>2019-06-17T15:19:34.000Z</time>
      </trkpt>
      <trkpt lat="49.50631" lon="3.78104">
        <ele>208.12</ele>
        <time>2019-06-17T15:19:44.000Z</time>
      </trkpt>
      <trkpt lat="49.50641" lon="3.78101">
        <ele>207.66</ele>
        <time>2019-06-17T15:19:54.000Z</time>
      </trkpt>
      <trkpt lat="49.50654" lon="3.78098">
        <ele>206.89</ele>
        <time>2019-06-17T15:20:04.000Z</time>
      </trkpt>
      <trkpt lat="49.50666" lon="3.78095">
        <ele>206.51</ele>
        <time>2019-06-17T15:20:13.999Z</time>
      </trkpt>
      <trkpt lat="49.50675" lon="3.78094">
        <ele>206.27</ele>
        <time>2019-06-17T15:20:23.999Z</time>
      </trkpt>
      <trkpt lat="49.50686" lon="3.78088">
        <ele>205.77</ele>
        <time>2019-06-17T15:20:33.999Z</time>
      </trkpt>
      <trkpt lat="49.50697" lon="3.78084">
        <ele>205.31</ele>
        <time>2019-06-17T15:20:43.999Z</time>
      </trkpt>
      <trkpt lat="49.50704" lon="3.78081">
        <ele>204.84</ele>
        <time>2019-06-17T15:20:53.999Z</time>
      </trkpt>
      <trkpt lat="49.50708" lon="3.78074">
        <ele>204.4</ele>
        <time>2019-06-17T15:21:03.999Z</time>
      </trkpt>
      <trkpt lat="49.50713" lon="3.7807">
        <ele>203.94</ele>
        <time>2019-06-17T15:21:13.999Z</time>
      </trkpt>
      <trkpt lat="49.50718" lon="3.78066">
        <ele>204.14</ele>
        <time>2019-06-17T15:21:23.999Z</time>
      </trkpt>
      <trkpt lat="49.50727" lon="3.78063">
        <ele>204.04</ele>
        <time>2019-06-17T15:21:33.999Z</time>
      </trkpt>
      <trkpt lat="49.50735" lon="3.78062">
        <ele>204.08</ele>
        <time>2019-06-17T15:21:43.999Z</time>
      </trkpt>
      <trkpt lat="49.50736" lon="3.78061">
        <ele>203.86</ele>
        <time>2019-06-17T15:21:53.999Z</time>
      </trkpt>
      <trkpt lat="49.50737" lon="3.78063">
        <ele>202.42</ele>
        <time>2019-06-17T15:22:19.999Z</time>
      </trkpt>
      <trkpt lat="49.50738" lon="3.78063">
        <ele>202.05</ele>
        <time>2019-06-17T15:23:02.999Z</time>
      </trkpt>
      <trkpt lat="49.50737" lon="3.78065">
        <ele>201.55</ele>
        <time>2019-06-17T15:23:12.999Z</time>
      </trkpt>
      <trkpt lat="49.50738" lon="3.78066">
        <ele>200.35</ele>
        <time>2019-06-17T15:23:39.999Z</time>
      </trkpt>
      <trkpt lat="49.50742" lon="3.78067">
        <ele>200.07</ele>
        <time>2019-06-17T15:23:49.999Z</time>
      </trkpt>
      <trkpt lat="49.50747" lon="3.78068">
        <ele>200.41</ele>
        <time>2019-06-17T15:23:59.999Z</time>
      </trkpt>
      <trkpt lat="49.50751" lon="3.78067">
        <ele>200.5</ele>
        <time>2019-06-17T15:24:09.999Z</time>
      </trkpt>
      <trkpt lat="49.50761" lon="3.78064">
        <ele>200.66</ele>
        <time>2019-06-17T15:24:19.999Z</time>
      </trkpt>
      <trkpt lat="49.50771" lon="3.78061">
        <ele>200.55</ele>
        <time>2019-06-17T15:24:29.999Z</time>
      </trkpt>
      <trkpt lat="49.50781" lon="3.78054">
        <ele>199.8</ele>
        <time>2019-06-17T15:24:39.999Z</time>
      </trkpt>
      <trkpt lat="49.50797" lon="3.78048">
        <ele>198.93</ele>
        <time>2019-06-17T15:24:49.999Z</time>
      </trkpt>
      <trkpt lat="49.50811" lon="3.78045">
        <ele>197.77</ele>
        <time>2019-06-17T15:24:59.999Z</time>
      </trkpt>
      <trkpt lat="49.5082" lon="3.7804">
        <ele>196.8</ele>
        <time>2019-06-17T15:25:09.999Z</time>
      </trkpt>
      <trkpt lat="49.50831" lon="3.78035">
        <ele>195.97</ele>
        <time>2019-06-17T15:25:19.999Z</time>
      </trkpt>
      <trkpt lat="49.50841" lon="3.7803">
        <ele>195.16</ele>
        <time>2019-06-17T15:25:29.999Z</time>
      </trkpt>
      <trkpt lat="49.50849" lon="3.78026">
        <ele>194.34</ele>
        <time>2019-06-17T15:25:39.999Z</time>
      </trkpt>
      <trkpt lat="49.50858" lon="3.78022">
        <ele>193.87</ele>
        <time>2019-06-17T15:25:49.999Z</time>
      </trkpt>
      <trkpt lat="49.50867" lon="3.78019">
        <ele>193.29</ele>
        <time>2019-06-17T15:25:59.999Z</time>
      </trkpt>
      <trkpt lat="49.50878" lon="3.78015">
        <ele>193.33</ele>
        <time>2019-06-17T15:26:09.999Z</time>
      </trkpt>
      <trkpt lat="49.50887" lon="3.78012">
        <ele>193.17</ele>
        <time>2019-06-17T15:26:19.999Z</time>
      </trkpt>
      <trkpt lat="49.50894" lon="3.78016">
        <ele>192.54</ele>
        <time>2019-06-17T15:26:29.999Z</time>
      </trkpt>
      <trkpt lat="49.50906" lon="3.7802">
        <ele>192.31</ele>
        <time>2019-06-17T15:26:39.999Z</time>
      </trkpt>
      <trkpt lat="49.50917" lon="3.78018">
        <ele>192.2</ele>
        <time>2019-06-17T15:26:49.999Z</time>
      </trkpt>
      <trkpt lat="49.50933" lon="3.78011">
        <ele>192.51</ele>
        <time>2019-06-17T15:26:59.999Z</time>
      </trkpt>
      <trkpt lat="49.50945" lon="3.78006">
        <ele>193.56</ele>
        <time>2019-06-17T15:27:09.999Z</time>
      </trkpt>
      <trkpt lat="49.50957" lon="3.78003">
        <ele>194.51</ele>
        <time>2019-06-17T15:27:19.999Z</time>
      </trkpt>
      <trkpt lat="49.50968" lon="3.77998">
        <ele>195.48</ele>
        <time>2019-06-17T15:27:29.999Z</time>
      </trkpt>
      <trkpt lat="49.50975" lon="3.77995">
        <ele>196.62</ele>
        <time>2019-06-17T15:27:39.999Z</time>
      </trkpt>
      <trkpt lat="49.50983" lon="3.77991">
        <ele>196.64</ele>
        <time>2019-06-17T15:27:49.999Z</time>
      </trkpt>
      <trkpt lat="49.50992" lon="3.77986">
        <ele>196.48</ele>
        <time>2019-06-17T15:27:59.999Z</time>
      </trkpt>
      <trkpt lat="49.51007" lon="3.7798">
        <ele>198.57</ele>
        <time>2019-06-17T15:28:09.999Z</time>
      </trkpt>
      <trkpt lat="49.51026" lon="3.77979">
        <ele>202.52</ele>
        <time>2019-06-17T15:28:19.999Z</time>
      </trkpt>
      <trkpt lat="49.51044" lon="3.77978">
        <ele>207.08</ele>
        <time>2019-06-17T15:28:29.999Z</time>
      </trkpt>
      <trkpt lat="49.51054" lon="3.77973">
        <ele>210.83</ele>
        <time>2019-06-17T15:28:39.999Z</time>
      </trkpt>
      <trkpt lat="49.51065" lon="3.77966">
        <ele>214.4</ele>
        <time>2019-06-17T15:28:49.999Z</time>
      </trkpt>
      <trkpt lat="49.51079" lon="3.77961">
        <ele>217.03</ele>
        <time>2019-06-17T15:28:59.999Z</time>
      </trkpt>
      <trkpt lat="49.51089" lon="3.77953">
        <ele>219.2</ele>
        <time>2019-06-17T15:29:09.999Z</time>
      </trkpt>
      <trkpt lat="49.51099" lon="3.77945">
        <ele>220.89</ele>
        <time>2019-06-17T15:29:19.999Z</time>
      </trkpt>
      <trkpt lat="49.51108" lon="3.7794">
        <ele>222.23</ele>
        <time>2019-06-17T15:29:29.999Z</time>
      </trkpt>
      <trkpt lat="49.51119" lon="3.77932">
        <ele>222.96</ele>
        <time>2019-06-17T15:29:39.999Z</time>
      </trkpt>
      <trkpt lat="49.51131" lon="3.77923">
        <ele>223.32</ele>
        <time>2019-06-17T15:29:49.999Z</time>
      </trkpt>
      <trkpt lat="49.51143" lon="3.77915">
        <ele>223.47</ele>
        <time>2019-06-17T15:29:59.999Z</time>
      </trkpt>
      <trkpt lat="49.51156" lon="3.77908">
        <ele>223.53</ele>
        <time>2019-06-17T15:30:09.999Z</time>
      </trkpt>
      <trkpt lat="49.51171" lon="3.77902">
        <ele>223.61</ele>
        <time>2019-06-17T15:30:19.999Z</time>
      </trkpt>
      <trkpt lat="49.51185" lon="3.77899">
        <ele>222.98</ele>
        <time>2019-06-17T15:30:29.999Z</time>
      </trkpt>
      <trkpt lat="49.51199" lon="3.77895">
        <ele>222.18</ele>
        <time>2019-06-17T15:30:39.999Z</time>
      </trkpt>
      <trkpt lat="49.51213" lon="3.77895">
        <ele>220.7</ele>
        <time>2019-06-17T15:30:49.999Z</time>
      </trkpt>
      <trkpt lat="49.51225" lon="3.77897">
        <ele>219.45</ele>
        <time>2019-06-17T15:30:59.999Z</time>
      </trkpt>
      <trkpt lat="49.51242" lon="3.779">
        <ele>217.71</ele>
        <time>2019-06-17T15:31:09.999Z</time>
      </trkpt>
      <trkpt lat="49.51254" lon="3.77902">
        <ele>216.23</ele>
        <time>2019-06-17T15:31:19.999Z</time>
      </trkpt>
      <trkpt lat="49.51264" lon="3.77903">
        <ele>215.8</ele>
        <time>2019-06-17T15:31:29.999Z</time>
      </trkpt>
      <trkpt lat="49.51274" lon="3.77907">
        <ele>215.77</ele>
        <time>2019-06-17T15:31:39.999Z</time>
      </trkpt>
      <trkpt lat="49.51287" lon="3.77908">
        <ele>215.92</ele>
        <time>2019-06-17T15:31:49.999Z</time>
      </trkpt>
      <trkpt lat="49.51298" lon="3.77912">
        <ele>216.2</ele>
        <time>2019-06-17T15:31:59.999Z</time>
      </trkpt>
      <trkpt lat="49.51306" lon="3.77925">
        <ele>215.61</ele>
        <time>2019-06-17T15:32:09.999Z</time>
      </trkpt>
      <trkpt lat="49.51313" lon="3.77939">
        <ele>214.48</ele>
        <time>2019-06-17T15:32:19.999Z</time>
      </trkpt>
      <trkpt lat="49.51322" lon="3.77953">
        <ele>213.02</ele>
        <time>2019-06-17T15:32:29.999Z</time>
      </trkpt>
      <trkpt lat="49.51331" lon="3.77965">
        <ele>211.53</ele>
        <time>2019-06-17T15:32:39.999Z</time>
      </trkpt>
      <trkpt lat="49.5134" lon="3.77978">
        <ele>209.74</ele>
        <time>2019-06-17T15:32:49.999Z</time>
      </trkpt>
      <trkpt lat="49.51345" lon="3.77988">
        <ele>208.56</ele>
        <time>2019-06-17T15:32:59.999Z</time>
      </trkpt>
      <trkpt lat="49.5135" lon="3.78004">
        <ele>207.66</ele>
        <time>2019-06-17T15:33:09.999Z</time>
      </trkpt>
      <trkpt lat="49.51357" lon="3.78022">
        <ele>206.7</ele>
        <time>2019-06-17T15:33:19.999Z</time>
      </trkpt>
      <trkpt lat="49.51368" lon="3.78039">
        <ele>205.82</ele>
        <time>2019-06-17T15:33:29.999Z</time>
      </trkpt>
      <trkpt lat="49.51377" lon="3.78057">
        <ele>204.89</ele>
        <time>2019-06-17T15:33:39.999Z</time>
      </trkpt>
      <trkpt lat="49.51385" lon="3.78074">
        <ele>204.13</ele>
        <time>2019-06-17T15:33:49.999Z</time>
      </trkpt>
      <trkpt lat="49.51394" lon="3.78095">
        <ele>203.19</ele>
        <time>2019-06-17T15:33:59.999Z</time>
      </trkpt>
      <trkpt lat="49.51402" lon="3.78119">
        <ele>202.71</ele>
        <time>2019-06-17T15:34:09.999Z</time>
      </trkpt>
      <trkpt lat="49.5141" lon="3.78142">
        <ele>202.56</ele>
        <time>2019-06-17T15:34:19.999Z</time>
      </trkpt>
      <trkpt lat="49.5142" lon="3.78162">
        <ele>202.51</ele>
        <time>2019-06-17T15:34:29.999Z</time>
      </trkpt>
      <trkpt lat="49.5143" lon="3.7818">
        <ele>202.16</ele>
        <time>2019-06-17T15:34:39.999Z</time>
      </trkpt>
      <trkpt lat="49.51439" lon="3.78193">
        <ele>201.65</ele>
        <time>2019-06-17T15:34:49.999Z</time>
      </trkpt>
      <trkpt lat="49.51448" lon="3.78211">
        <ele>201.29</ele>
        <time>2019-06-17T15:34:59.999Z</time>
      </trkpt>
      <trkpt lat="49.51457" lon="3.78233">
        <ele>201.45</ele>
        <time>2019-06-17T15:35:09.999Z</time>
      </trkpt>
      <trkpt lat="49.51465" lon="3.78254">
        <ele>201.61</ele>
        <time>2019-06-17T15:35:19.999Z</time>
      </trkpt>
      <trkpt lat="49.51472" lon="3.78279">
        <ele>201.55</ele>
        <time>2019-06-17T15:35:29.999Z</time>
      </trkpt>
      <trkpt lat="49.51478" lon="3.78298">
        <ele>200.87</ele>
        <time>2019-06-17T15:35:39.999Z</time>
      </trkpt>
      <trkpt lat="49.51486" lon="3.7832">
        <ele>199.89</ele>
        <time>2019-06-17T15:35:49.999Z</time>
      </trkpt>
      <trkpt lat="49.51495" lon="3.78341">
        <ele>198.8</ele>
        <time>2019-06-17T15:35:59.999Z</time>
      </trkpt>
      <trkpt lat="49.515" lon="3.78364">
        <ele>197.19</ele>
        <time>2019-06-17T15:36:09.999Z</time>
      </trkpt>
      <trkpt lat="49.51506" lon="3.78384">
        <ele>195.61</ele>
        <time>2019-06-17T15:36:19.999Z</time>
      </trkpt>
      <trkpt lat="49.51512" lon="3.78402">
        <ele>193.35</ele>
        <time>2019-06-17T15:36:29.999Z</time>
      </trkpt>
      <trkpt lat="49.51517" lon="3.78419">
        <ele>190.49</ele>
        <time>2019-06-17T15:36:39.999Z</time>
      </trkpt>
      <trkpt lat="49.51514" lon="3.78443">
        <ele>187.21</ele>
        <time>2019-06-17T15:36:49.999Z</time>
      </trkpt>
      <trkpt lat="49.51513" lon="3.78467">
        <ele>184.28</ele>
        <time>2019-06-17T15:36:59.999Z</time>
      </trkpt>
      <trkpt lat="49.51515" lon="3.7849">
        <ele>182.48</ele>
        <time>2019-06-17T15:37:09.999Z</time>
      </trkpt>
      <trkpt lat="49.51519" lon="3.78507">
        <ele>180.96</ele>
        <time>2019-06-17T15:37:19.999Z</time>
      </trkpt>
      <trkpt lat="49.51525" lon="3.78524">
        <ele>178.2</ele>
        <time>2019-06-17T15:37:29.999Z</time>
      </trkpt>
      <trkpt lat="49.51532" lon="3.78545">
        <ele>174.71</ele>
        <time>2019-06-17T15:37:39.999Z</time>
      </trkpt>
      <trkpt lat="49.5153" lon="3.78582">
        <ele>172.96</ele>
        <time>2019-06-17T15:37:49.999Z</time>
      </trkpt>
      <trkpt lat="49.51525" lon="3.7861">
        <ele>171.17</ele>
        <time>2019-06-17T15:37:59.999Z</time>
      </trkpt>
      <trkpt lat="49.51522" lon="3.78637">
        <ele>169.66</ele>
        <time>2019-06-17T15:38:09.999Z</time>
      </trkpt>
      <trkpt lat="49.51516" lon="3.78668">
        <ele>168.49</ele>
        <time>2019-06-17T15:38:19.999Z</time>
      </trkpt>
      <trkpt lat="49.51512" lon="3.78695">
        <ele>167.13</ele>
        <time>2019-06-17T15:38:29.999Z</time>
      </trkpt>
      <trkpt lat="49.51509" lon="3.78717">
        <ele>165.58</ele>
        <time>2019-06-17T15:38:39.999Z</time>
      </trkpt>
      <trkpt lat="49.51514" lon="3.78736">
        <ele>164.12</ele>
        <time>2019-06-17T15:38:49.999Z</time>
      </trkpt>
      <trkpt lat="49.51522" lon="3.78759">
        <ele>163.87</ele>
        <time>2019-06-17T15:38:59.999Z</time>
      </trkpt>
      <trkpt lat="49.51531" lon="3.78786">
        <ele>164.08</ele>
        <time>2019-06-17T15:39:09.999Z</time>
      </trkpt>
      <trkpt lat="49.51543" lon="3.78807">
        <ele>164.31</ele>
        <time>2019-06-17T15:39:19.999Z</time>
      </trkpt>
      <trkpt lat="49.51555" lon="3.78825">
        <ele>164.06</ele>
        <time>2019-06-17T15:39:29.999Z</time>
      </trkpt>
      <trkpt lat="49.51569" lon="3.78837">
        <ele>163.44</ele>
        <time>2019-06-17T15:39:39.999Z</time>
      </trkpt>
      <trkpt lat="49.51585" lon="3.78847">
        <ele>163.04</ele>
        <time>2019-06-17T15:39:49.999Z</time>
      </trkpt>
      <trkpt lat="49.51601" lon="3.78857">
        <ele>162.57</ele>
        <time>2019-06-17T15:39:59.999Z</time>
      </trkpt>
      <trkpt lat="49.51615" lon="3.78866">
        <ele>161.96</ele>
        <time>2019-06-17T15:40:09.999Z</time>
      </trkpt>
      <trkpt lat="49.51628" lon="3.78873">
        <ele>160.89</ele>
        <time>2019-06-17T15:40:19.999Z</time>
      </trkpt>
      <trkpt lat="49.51645" lon="3.78881">
        <ele>159.3</ele>
        <time>2019-06-17T15:40:29.999Z</time>
      </trkpt>
      <trkpt lat="49.51659" lon="3.78888">
        <ele>157.87</ele>
        <time>2019-06-17T15:40:39.999Z</time>
      </trkpt>
      <trkpt lat="49.51672" lon="3.78891">
        <ele>156.38</ele>
        <time>2019-06-17T15:40:49.999Z</time>
      </trkpt>
      <trkpt lat="49.51685" lon="3.78893">
        <ele>154.87</ele>
        <time>2019-06-17T15:40:59.999Z</time>
      </trkpt>
      <trkpt lat="49.51696" lon="3.78897">
        <ele>153.31</ele>
        <time>2019-06-17T15:41:09.999Z</time>
      </trkpt>
      <trkpt lat="49.51709" lon="3.78903">
        <ele>151.49</ele>
        <time>2019-06-17T15:41:19.999Z</time>
      </trkpt>
      <trkpt lat="49.51722" lon="3.78908">
        <ele>149.35</ele>
        <time>2019-06-17T15:41:29.999Z</time>
      </trkpt>
      <trkpt lat="49.51737" lon="3.78911">
        <ele>147.72</ele>
        <time>2019-06-17T15:41:39.999Z</time>
      </trkpt>
      <trkpt lat="49.51752" lon="3.78911">
        <ele>146.3</ele>
        <time>2019-06-17T15:41:49.999Z</time>
      </trkpt>
      <trkpt lat="49.51763" lon="3.7891">
        <ele>145.07</ele>
        <time>2019-06-17T15:41:59.999Z</time>
      </trkpt>
      <trkpt lat="49.51779" lon="3.78905">
        <ele>144.26</ele>
        <time>2019-06-17T15:42:09.999Z</time>
      </trkpt>
      <trkpt lat="49.51797" lon="3.78896">
        <ele>143.82</ele>
        <time>2019-06-17T15:42:19.999Z</time>
      </trkpt>
      <trkpt lat="49.51814" lon="3.78891">
        <ele>143.51</ele>
        <time>2019-06-17T15:42:29.999Z</time>
      </trkpt>
      <trkpt lat="49.51829" lon="3.78889">
        <ele>143.02</ele>
        <time>2019-06-17T15:42:39.999Z</time>
      </trkpt>
      <trkpt lat="49.51841" lon="3.78885">
        <ele>142.59</ele>
        <time>2019-06-17T15:42:49.999Z</time>
      </trkpt>
      <trkpt lat="49.51852" lon="3.78876">
        <ele>141.9</ele>
        <time>2019-06-17T15:42:59.999Z</time>
      </trkpt>
      <trkpt lat="49.51866" lon="3.78865">
        <ele>141.2</ele>
        <time>2019-06-17T15:43:09.999Z</time>
      </trkpt>
      <trkpt lat="49.51879" lon="3.78851">
        <ele>140.29</ele>
        <time>2019-06-17T15:43:19.999Z</time>
      </trkpt>
      <trkpt lat="49.51887" lon="3.78843">
        <ele>139.53</ele>
        <time>2019-06-17T15:43:29.999Z</time>
      </trkpt>
      <trkpt lat="49.51896" lon="3.78834">
        <ele>140.25</ele>
        <time>2019-06-17T15:43:39.999Z</time>
      </trkpt>
      <trkpt lat="49.5191" lon="3.78823">
        <ele>140.97</ele>
        <time>2019-06-17T15:43:49.999Z</time>
      </trkpt>
      <trkpt lat="49.51921" lon="3.78812">
        <ele>141.09</ele>
        <time>2019-06-17T15:43:59.999Z</time>
      </trkpt>
      <trkpt lat="49.51928" lon="3.78804">
        <ele>140.59</ele>
        <time>2019-06-17T15:44:09.999Z</time>
      </trkpt>
      <trkpt lat="49.51928" lon="3.78803">
        <ele>140.53</ele>
        <time>2019-06-17T15:44:10.999Z</time>
      </trkpt>
    </trkseg>
  </trk>
</gpx>